KZR222 EDDF-UAAA
Flight info
| Callsign | KZR222 |
|---|---|
| Flight time | N/A |
| Altitude | 35000 |
| Route | CINDY8S/18 CINDY Z74 HAREM DCT ASLEP DCT TAKUT L603 BESNI L605 MIQ DCT ALUTU DCT BIBAG Q104 AKIMA DCT ARSIN DCT GAZDA DCT TEGRI DCT DINRO N743 UDROS DCT CRM DCT ROLIN DCT TAGAR DCT BT DCT BARAD M747 LUSAL N199 RASAM L88 METKA B476 TIMGA A480 OTBOR/K0870F310 N147 ELAHA Z621 ARBOL M610 TIPSA TIPSA1X |
| Aircraft | A21N/M-SDE2E3FGHIRWXY/LB1 |
Departure
| Time | 2026-05-07 21:48 |
|---|---|
| Airport | Frankfurt Main Airport (EDDF) |
Arrival
| Time | N/A |
|---|---|
| Airport | Almaty International Airport (UAAA) |
| Time | Latitude | Longitude | Altitude | Speed | Heading |
|---|---|---|---|---|---|
| 2026-05-07 21:03 | 50.02946 | 8.57753 | 359 ft | 0 kts | 25° |
| 2026-05-07 21:29 | 50.02930 | 8.57741 | 366 ft | 4 kts | 25° |
| 2026-05-07 21:29 | 50.02910 | 8.57727 | 365 ft | 3 kts | 24° |
| 2026-05-07 21:30 | 50.02890 | 8.57720 | 363 ft | 4 kts | 320° |
| 2026-05-07 21:30 | 50.02882 | 8.57751 | 360 ft | 4 kts | 273° |
| 2026-05-07 21:30 | 50.02882 | 8.57752 | 360 ft | 4 kts | 272° |
| 2026-05-07 21:30 | 50.02882 | 8.57712 | 362 ft | 4 kts | 272° |
| 2026-05-07 21:31 | 50.02883 | 8.57670 | 356 ft | 4 kts | 272° |
| 2026-05-07 21:31 | 50.02884 | 8.57642 | 358 ft | 1 kts | 272° |
| 2026-05-07 21:37 | 50.02884 | 8.57641 | 358 ft | 0 kts | 272° |
| 2026-05-07 21:38 | 50.02884 | 8.57630 | 356 ft | 2 kts | 272° |
| 2026-05-07 21:38 | 50.02903 | 8.57509 | 359 ft | 22 kts | 290° |
| 2026-05-07 21:38 | 50.02982 | 8.57246 | 358 ft | 28 kts | 296° |
| 2026-05-07 21:38 | 50.03057 | 8.56993 | 361 ft | 18 kts | 297° |
| 2026-05-07 21:39 | 50.03157 | 8.56899 | 359 ft | 17 kts | 340° |
| 2026-05-07 21:39 | 50.03202 | 8.56873 | 358 ft | 0 kts | 340° |
| 2026-05-07 21:39 | 50.03203 | 8.56873 | 357 ft | 0 kts | 340° |
| 2026-05-07 21:40 | 50.03225 | 8.56861 | 356 ft | 10 kts | 340° |
| 2026-05-07 21:40 | 50.03271 | 8.56783 | 355 ft | 10 kts | 272° |
| 2026-05-07 21:41 | 50.03247 | 8.56665 | 357 ft | 13 kts | 249° |
| 2026-05-07 21:41 | 50.03212 | 8.56517 | 359 ft | 23 kts | 249° |
| 2026-05-07 21:41 | 50.03153 | 8.56272 | 355 ft | 24 kts | 249° |
| 2026-05-07 21:41 | 50.03092 | 8.56017 | 353 ft | 26 kts | 250° |
| 2026-05-07 21:42 | 50.03028 | 8.55751 | 355 ft | 26 kts | 250° |
| 2026-05-07 21:42 | 50.02965 | 8.55490 | 352 ft | 26 kts | 248° |
| 2026-05-07 21:42 | 50.02902 | 8.55225 | 350 ft | 26 kts | 249° |
| 2026-05-07 21:42 | 50.02833 | 8.54939 | 347 ft | 33 kts | 249° |
| 2026-05-07 21:43 | 50.02752 | 8.54600 | 351 ft | 33 kts | 250° |
| 2026-05-07 21:43 | 50.02676 | 8.54265 | 345 ft | 33 kts | 258° |
| 2026-05-07 21:43 | 50.02600 | 8.53922 | 337 ft | 34 kts | 250° |
| 2026-05-07 21:43 | 50.02520 | 8.53582 | 336 ft | 33 kts | 249° |
| 2026-05-07 21:44 | 50.02440 | 8.53247 | 334 ft | 33 kts | 250° |
| 2026-05-07 21:44 | 50.02441 | 8.52929 | 337 ft | 30 kts | 305° |
| 2026-05-07 21:44 | 50.02616 | 8.52826 | 337 ft | 28 kts | 360° |
| 2026-05-07 21:44 | 50.02807 | 8.52825 | 339 ft | 27 kts | 360° |
| 2026-05-07 21:45 | 50.02996 | 8.52824 | 336 ft | 27 kts | 360° |
| 2026-05-07 21:45 | 50.03185 | 8.52822 | 334 ft | 27 kts | 358° |
| 2026-05-07 21:45 | 50.03279 | 8.52795 | 334 ft | 0 kts | 309° |
| 2026-05-07 21:45 | 50.03277 | 8.52719 | 335 ft | 11 kts | 245° |
| 2026-05-07 21:46 | 50.03233 | 8.52645 | 338 ft | 8 kts | 222° |
| 2026-05-07 21:46 | 50.03181 | 8.52602 | 336 ft | 9 kts | 193° |
| 2026-05-07 21:46 | 50.03138 | 8.52596 | 337 ft | 0 kts | 179° |
| 2026-05-07 21:47 | 50.03086 | 8.52596 | 338 ft | 34 kts | 180° |
| 2026-05-07 21:47 | 50.02593 | 8.52602 | 336 ft | 108 kts | 179° |
| 2026-05-07 21:47 | 50.01574 | 8.52617 | 351 ft | 180 kts | 179° |
| 2026-05-07 21:47 | 50.00219 | 8.52595 | 649 ft | 209 kts | 180° |
| 2026-05-07 21:48 | 49.98666 | 8.52599 | 1188 ft | 227 kts | 179° |
| 2026-05-07 21:48 | 49.97137 | 8.52801 | 2348 ft | 211 kts | 160° |
| 2026-05-07 21:48 | 49.96017 | 8.54083 | 3250 ft | 203 kts | 126° |
| 2026-05-07 21:48 | 49.95261 | 8.55994 | 3814 ft | 220 kts | 117° |
| 2026-05-07 21:49 | 49.94509 | 8.58234 | 4013 ft | 244 kts | 116° |
| 2026-05-07 21:49 | 49.93689 | 8.60653 | 3991 ft | 261 kts | 118° |
| 2026-05-07 21:49 | 49.92792 | 8.63186 | 4467 ft | 272 kts | 118° |
| 2026-05-07 21:49 | 49.91886 | 8.65738 | 5502 ft | 272 kts | 118° |
| 2026-05-07 21:50 | 49.90968 | 8.68330 | 6523 ft | 275 kts | 119° |
| 2026-05-07 21:50 | 49.90038 | 8.70958 | 7452 ft | 279 kts | 119° |
| 2026-05-07 21:50 | 49.89113 | 8.73578 | 8403 ft | 282 kts | 119° |
| 2026-05-07 21:50 | 49.88158 | 8.76256 | 9366 ft | 285 kts | 119° |
| 2026-05-07 21:51 | 49.87183 | 8.78965 | 10299 ft | 290 kts | 119° |
| 2026-05-07 21:51 | 49.86163 | 8.81788 | 10766 ft | 311 kts | 120° |
| 2026-05-07 21:51 | 49.85058 | 8.84839 | 11118 ft | 335 kts | 120° |
| 2026-05-07 21:51 | 49.83881 | 8.88082 | 11460 ft | 357 kts | 120° |
| 2026-05-07 21:52 | 49.82643 | 8.91489 | 11869 ft | 374 kts | 120° |
| 2026-05-07 21:52 | 49.81349 | 8.95049 | 12531 ft | 383 kts | 120° |
| 2026-05-07 21:52 | 49.80028 | 8.98681 | 13320 ft | 389 kts | 120° |
| 2026-05-07 21:52 | 49.78688 | 9.02358 | 14090 ft | 394 kts | 120° |
| 2026-05-07 21:53 | 49.77332 | 9.06074 | 14818 ft | 398 kts | 120° |
| 2026-05-07 21:53 | 49.75955 | 9.09855 | 15503 ft | 404 kts | 116° |
| 2026-05-07 21:53 | 49.75132 | 9.13986 | 16173 ft | 410 kts | 103° |
| 2026-05-07 21:53 | 49.74574 | 9.18334 | 16882 ft | 414 kts | 100° |
| 2026-05-07 21:54 | 49.73759 | 9.22617 | 17536 ft | 417 kts | 117° |
| 2026-05-07 21:54 | 49.72191 | 9.26394 | 18214 ft | 420 kts | 126° |
| 2026-05-07 21:54 | 49.70742 | 9.30334 | 18794 ft | 426 kts | 117° |
| 2026-05-07 21:54 | 49.69538 | 9.34469 | 19345 ft | 430 kts | 114° |
| 2026-05-07 21:55 | 49.68394 | 9.38752 | 19910 ft | 434 kts | 113° |
| 2026-05-07 21:55 | 49.67238 | 9.43090 | 20466 ft | 437 kts | 113° |
| 2026-05-07 21:55 | 49.66046 | 9.47424 | 21024 ft | 441 kts | 114° |
| 2026-05-07 21:55 | 49.64807 | 9.51760 | 21582 ft | 444 kts | 115° |
| 2026-05-07 21:56 | 49.63533 | 9.56089 | 22146 ft | 448 kts | 115° |
| 2026-05-07 21:56 | 49.62233 | 9.60421 | 22693 ft | 451 kts | 115° |
| 2026-05-07 21:56 | 49.60894 | 9.64838 | 23224 ft | 454 kts | 115° |
| 2026-05-07 21:56 | 49.59544 | 9.69269 | 23735 ft | 458 kts | 115° |
| 2026-05-07 21:57 | 49.58183 | 9.73724 | 24157 ft | 461 kts | 115° |
| 2026-05-07 21:57 | 49.56834 | 9.78140 | 24570 ft | 464 kts | 115° |
| 2026-05-07 21:57 | 49.55447 | 9.82678 | 24979 ft | 467 kts | 115° |
| 2026-05-07 21:57 | 49.54051 | 9.87241 | 25349 ft | 470 kts | 116° |
| 2026-05-07 21:58 | 49.52666 | 9.91763 | 25730 ft | 474 kts | 115° |
| 2026-05-07 21:58 | 49.51252 | 9.96373 | 26064 ft | 477 kts | 115° |
| 2026-05-07 21:58 | 49.49834 | 10.00988 | 26449 ft | 480 kts | 115° |
| 2026-05-07 21:58 | 49.48399 | 10.05649 | 26909 ft | 480 kts | 115° |
| 2026-05-07 21:59 | 49.46969 | 10.10285 | 27461 ft | 478 kts | 115° |
| 2026-05-07 21:59 | 49.45540 | 10.14909 | 27968 ft | 477 kts | 115° |
| 2026-05-07 21:59 | 49.44131 | 10.19458 | 28452 ft | 477 kts | 115° |
| 2026-05-07 21:59 | 49.42701 | 10.24069 | 28931 ft | 476 kts | 116° |
| 2026-05-07 22:00 | 49.41273 | 10.28663 | 29403 ft | 476 kts | 116° |
| 2026-05-07 22:00 | 49.39846 | 10.33246 | 29873 ft | 475 kts | 116° |
| 2026-05-07 22:00 | 49.38900 | 10.36279 | 30188 ft | 474 kts | 116° |
| 2026-05-07 22:00 | 49.37015 | 10.42309 | 30668 ft | 473 kts | 116° |
| 2026-05-07 22:01 | 49.35588 | 10.46869 | 31013 ft | 473 kts | 116° |
| 2026-05-07 22:01 | 49.34646 | 10.49870 | 31228 ft | 473 kts | 116° |
| 2026-05-07 22:01 | 49.33213 | 10.54432 | 31561 ft | 473 kts | 116° |
| 2026-05-07 22:01 | 49.31777 | 10.58998 | 31872 ft | 473 kts | 116° |
| 2026-05-07 22:02 | 49.30339 | 10.63560 | 32182 ft | 473 kts | 116° |
| 2026-05-07 22:02 | 49.28905 | 10.68100 | 32488 ft | 474 kts | 116° |
| 2026-05-07 22:02 | 49.27465 | 10.72651 | 32798 ft | 473 kts | 117° |
| 2026-05-07 22:02 | 49.26043 | 10.77139 | 33133 ft | 473 kts | 117° |
| 2026-05-07 22:03 | 49.24612 | 10.81645 | 33420 ft | 473 kts | 117° |
| 2026-05-07 22:03 | 49.23170 | 10.86178 | 33656 ft | 474 kts | 117° |
| 2026-05-07 22:03 | 49.21719 | 10.90732 | 33812 ft | 477 kts | 117° |
| 2026-05-07 22:03 | 49.20268 | 10.95274 | 34040 ft | 478 kts | 117° |
| 2026-05-07 22:04 | 49.18801 | 10.99860 | 34301 ft | 477 kts | 117° |
| 2026-05-07 22:04 | 49.17358 | 11.04364 | 34546 ft | 476 kts | 117° |
| 2026-05-07 22:04 | 49.15898 | 11.08916 | 34788 ft | 476 kts | 117° |
| 2026-05-07 22:04 | 49.14437 | 11.13458 | 35025 ft | 475 kts | 117° |
| 2026-05-07 22:05 | 49.11505 | 11.22550 | 35111 ft | 476 kts | 118° |
| 2026-05-07 22:05 | 49.08571 | 11.31617 | 35109 ft | 476 kts | 118° |
| 2026-05-07 22:06 | 49.05644 | 11.40626 | 35097 ft | 476 kts | 118° |
| 2026-05-07 22:06 | 49.02695 | 11.49673 | 35101 ft | 476 kts | 118° |
| 2026-05-07 22:07 | 48.99750 | 11.58678 | 35085 ft | 476 kts | 118° |
| 2026-05-07 22:07 | 48.96788 | 11.67700 | 35096 ft | 476 kts | 118° |
| 2026-05-07 22:08 | 48.93811 | 11.76734 | 35093 ft | 476 kts | 118° |
| 2026-05-07 22:08 | 48.90847 | 11.85698 | 35098 ft | 477 kts | 118° |
| 2026-05-07 22:09 | 48.87850 | 11.94732 | 35099 ft | 478 kts | 118° |
| 2026-05-07 22:09 | 48.84862 | 12.03708 | 35099 ft | 478 kts | 118° |
| 2026-05-07 22:10 | 48.81846 | 12.12731 | 35102 ft | 478 kts | 118° |
| 2026-05-07 22:10 | 48.78825 | 12.21742 | 35106 ft | 478 kts | 119° |
| 2026-05-07 22:11 | 48.75809 | 12.30706 | 35096 ft | 478 kts | 119° |
| 2026-05-07 22:11 | 48.72774 | 12.39692 | 35100 ft | 479 kts | 119° |
| 2026-05-07 22:12 | 48.69732 | 12.48668 | 35092 ft | 479 kts | 119° |
| 2026-05-07 22:12 | 48.66696 | 12.57595 | 35096 ft | 479 kts | 119° |
| 2026-05-07 22:13 | 48.63636 | 12.66562 | 35102 ft | 479 kts | 119° |
| 2026-05-07 22:13 | 48.60567 | 12.75523 | 35101 ft | 479 kts | 119° |
| 2026-05-07 22:14 | 48.57503 | 12.84441 | 35090 ft | 480 kts | 120° |
| 2026-05-07 22:14 | 48.54406 | 12.93422 | 35094 ft | 481 kts | 120° |
| 2026-05-07 22:15 | 48.51308 | 13.02372 | 35097 ft | 481 kts | 120° |
| 2026-05-07 22:15 | 48.48215 | 13.11282 | 35106 ft | 480 kts | 120° |
| 2026-05-07 22:16 | 48.45105 | 13.20206 | 35092 ft | 480 kts | 120° |
| 2026-05-07 22:16 | 48.41998 | 13.29107 | 35095 ft | 480 kts | 119° |
| 2026-05-07 22:17 | 48.39440 | 13.38358 | 35099 ft | 482 kts | 111° |
| 2026-05-07 22:17 | 48.37315 | 13.47968 | 35094 ft | 483 kts | 110° |
| 2026-05-07 22:18 | 48.34154 | 13.62334 | 35097 ft | 483 kts | 110° |
| 2026-05-07 22:19 | 48.31977 | 13.71853 | 35088 ft | 483 kts | 111° |
| 2026-05-07 22:19 | 48.29761 | 13.81400 | 35094 ft | 483 kts | 111° |
| 2026-05-07 22:20 | 48.27542 | 13.90914 | 35092 ft | 482 kts | 111° |
| 2026-05-07 22:20 | 48.25328 | 14.00373 | 35096 ft | 482 kts | 111° |
| 2026-05-07 22:21 | 48.23092 | 14.09892 | 35102 ft | 482 kts | 111° |
| 2026-05-07 22:21 | 48.20860 | 14.19351 | 35101 ft | 482 kts | 111° |
| 2026-05-07 22:22 | 48.18625 | 14.28787 | 35092 ft | 483 kts | 112° |
| 2026-05-07 22:22 | 48.16354 | 14.38328 | 35099 ft | 485 kts | 112° |
| 2026-05-07 22:23 | 48.14084 | 14.47827 | 35099 ft | 486 kts | 112° |
| 2026-05-07 22:23 | 48.11794 | 14.57368 | 35097 ft | 486 kts | 112° |
| 2026-05-07 22:24 | 48.09510 | 14.66842 | 35088 ft | 486 kts | 112° |
| 2026-05-07 22:24 | 48.07218 | 14.76313 | 35089 ft | 484 kts | 112° |
| 2026-05-07 22:25 | 48.04916 | 14.85777 | 35093 ft | 484 kts | 112° |
| 2026-05-07 22:25 | 48.02603 | 14.95248 | 35095 ft | 484 kts | 112° |
| 2026-05-07 22:26 | 48.00279 | 15.04726 | 35081 ft | 484 kts | 113° |
| 2026-05-07 22:26 | 47.97965 | 15.14123 | 35093 ft | 484 kts | 113° |
| 2026-05-07 22:27 | 47.95631 | 15.23559 | 35096 ft | 484 kts | 113° |
| 2026-05-07 22:27 | 47.93303 | 15.32933 | 35093 ft | 484 kts | 113° |
| 2026-05-07 22:28 | 47.90957 | 15.42342 | 35083 ft | 484 kts | 114° |
| 2026-05-07 22:28 | 47.88604 | 15.51736 | 35089 ft | 482 kts | 114° |
| 2026-05-07 22:29 | 47.86252 | 15.61090 | 35090 ft | 482 kts | 114° |
| 2026-05-07 22:29 | 47.83903 | 15.70389 | 35088 ft | 482 kts | 114° |
| 2026-05-07 22:30 | 47.81528 | 15.79756 | 35082 ft | 483 kts | 114° |
| 2026-05-07 22:30 | 47.79164 | 15.89047 | 35082 ft | 482 kts | 114° |
| 2026-05-07 22:31 | 47.76775 | 15.98388 | 35080 ft | 482 kts | 114° |
| 2026-05-07 22:31 | 47.74397 | 16.07651 | 35075 ft | 482 kts | 114° |
| 2026-05-07 22:32 | 47.71997 | 16.16963 | 35075 ft | 482 kts | 114° |
| 2026-05-07 22:32 | 47.69587 | 16.26281 | 35070 ft | 482 kts | 115° |
| 2026-05-07 22:33 | 47.67185 | 16.35526 | 35065 ft | 482 kts | 115° |
| 2026-05-07 22:33 | 47.64759 | 16.44823 | 35065 ft | 482 kts | 115° |
| 2026-05-07 22:34 | 47.62332 | 16.54086 | 35057 ft | 482 kts | 115° |
| 2026-05-07 22:34 | 47.59910 | 16.63298 | 35052 ft | 482 kts | 115° |
| 2026-05-07 22:35 | 47.57464 | 16.72565 | 35053 ft | 482 kts | 115° |
| 2026-05-07 22:35 | 47.54999 | 16.81738 | 35053 ft | 481 kts | 116° |
| 2026-05-07 22:36 | 47.52473 | 16.90940 | 35056 ft | 481 kts | 116° |
| 2026-05-07 22:36 | 47.49937 | 17.00123 | 35050 ft | 482 kts | 116° |
| 2026-05-07 22:37 | 47.47406 | 17.09278 | 35056 ft | 482 kts | 116° |
| 2026-05-07 22:37 | 47.44855 | 17.18478 | 35049 ft | 482 kts | 116° |
| 2026-05-07 22:38 | 47.42315 | 17.27609 | 35048 ft | 482 kts | 116° |
| 2026-05-07 22:38 | 47.39758 | 17.36765 | 35047 ft | 481 kts | 117° |
| 2026-05-07 22:39 | 47.37211 | 17.45849 | 35050 ft | 480 kts | 117° |
| 2026-05-07 22:39 | 47.34655 | 17.54928 | 35047 ft | 481 kts | 117° |
| 2026-05-07 22:40 | 47.32079 | 17.64047 | 35047 ft | 480 kts | 117° |
| 2026-05-07 22:40 | 47.29512 | 17.73102 | 35046 ft | 480 kts | 117° |
| 2026-05-07 22:41 | 47.26928 | 17.82179 | 35048 ft | 479 kts | 117° |
| 2026-05-07 22:41 | 47.24339 | 17.91239 | 35051 ft | 479 kts | 118° |
| 2026-05-07 22:42 | 47.21752 | 18.00256 | 35046 ft | 480 kts | 118° |
| 2026-05-07 22:42 | 47.19144 | 18.09314 | 35053 ft | 479 kts | 118° |
| 2026-05-07 22:43 | 47.16560 | 18.18265 | 35051 ft | 478 kts | 118° |
| 2026-05-07 22:43 | 47.13951 | 18.27261 | 35050 ft | 478 kts | 118° |
| 2026-05-07 22:44 | 47.11350 | 18.36194 | 35048 ft | 478 kts | 118° |
| 2026-05-07 22:44 | 47.08727 | 18.45175 | 35045 ft | 475 kts | 118° |
| 2026-05-07 22:45 | 47.06133 | 18.54027 | 35050 ft | 473 kts | 118° |
| 2026-05-07 22:45 | 47.03512 | 18.62931 | 35047 ft | 473 kts | 118° |
| 2026-05-07 22:46 | 47.00912 | 18.71732 | 35048 ft | 473 kts | 118° |
| 2026-05-07 22:46 | 46.98286 | 18.80593 | 35042 ft | 472 kts | 118° |
| 2026-05-07 22:47 | 46.95683 | 18.89348 | 35049 ft | 470 kts | 118° |
| 2026-05-07 22:47 | 46.93058 | 18.98140 | 35048 ft | 470 kts | 118° |
| 2026-05-07 22:48 | 46.90444 | 19.06866 | 35046 ft | 470 kts | 118° |
| 2026-05-07 22:48 | 46.88252 | 19.14161 | 35033 ft | 470 kts | 118° |
| 2026-05-07 22:49 | 46.85616 | 19.22908 | 35050 ft | 468 kts | 118° |
| 2026-05-07 22:49 | 46.82977 | 19.31629 | 35046 ft | 468 kts | 118° |
| 2026-05-07 22:50 | 46.80345 | 19.40295 | 35041 ft | 468 kts | 119° |
| 2026-05-07 22:50 | 46.77679 | 19.48978 | 35030 ft | 468 kts | 119° |
| 2026-05-07 22:51 | 46.75014 | 19.57596 | 35048 ft | 467 kts | 119° |
| 2026-05-07 22:51 | 46.72337 | 19.66227 | 35028 ft | 466 kts | 119° |
| 2026-05-07 22:52 | 46.69663 | 19.74820 | 35050 ft | 468 kts | 119° |
| 2026-05-07 22:52 | 46.66956 | 19.83496 | 35021 ft | 468 kts | 119° |
| 2026-05-07 22:53 | 46.64259 | 19.92114 | 35043 ft | 467 kts | 119° |
| 2026-05-07 22:53 | 46.61574 | 20.00663 | 35046 ft | 467 kts | 119° |
| 2026-05-07 22:54 | 46.58869 | 20.09246 | 35049 ft | 467 kts | 119° |
| 2026-05-07 22:54 | 46.56153 | 20.17833 | 35048 ft | 467 kts | 119° |
| 2026-05-07 22:55 | 46.53431 | 20.26411 | 35048 ft | 467 kts | 119° |
| 2026-05-07 22:55 | 46.50718 | 20.34934 | 35048 ft | 467 kts | 119° |
| 2026-05-07 22:56 | 46.48001 | 20.43440 | 35048 ft | 467 kts | 120° |
| 2026-05-07 22:56 | 46.45254 | 20.52012 | 35041 ft | 466 kts | 120° |
| 2026-05-07 22:57 | 46.42522 | 20.60509 | 35043 ft | 466 kts | 120° |
| 2026-05-07 22:57 | 46.39770 | 20.69038 | 35041 ft | 466 kts | 120° |
| 2026-05-07 22:58 | 46.37033 | 20.77495 | 35041 ft | 466 kts | 120° |
| 2026-05-07 22:58 | 46.34262 | 20.86028 | 35042 ft | 466 kts | 120° |
| 2026-05-07 22:59 | 46.31507 | 20.94482 | 35044 ft | 467 kts | 120° |
| 2026-05-07 22:59 | 46.28733 | 21.02967 | 35044 ft | 468 kts | 120° |
| 2026-05-07 23:00 | 46.25961 | 21.11495 | 35045 ft | 469 kts | 118° |
| 2026-05-07 23:00 | 46.23413 | 21.20175 | 35048 ft | 470 kts | 116° |
| 2026-05-07 23:01 | 46.20944 | 21.28938 | 35054 ft | 470 kts | 116° |
| 2026-05-07 23:01 | 46.18475 | 21.37627 | 35047 ft | 471 kts | 116° |
| 2026-05-07 23:02 | 46.15954 | 21.46383 | 35046 ft | 471 kts | 116° |
| 2026-05-07 23:02 | 46.13435 | 21.55067 | 35045 ft | 471 kts | 117° |
| 2026-05-07 23:03 | 46.10890 | 21.63803 | 35039 ft | 472 kts | 116° |
| 2026-05-07 23:03 | 46.08352 | 21.72487 | 35040 ft | 472 kts | 116° |
| 2026-05-07 23:04 | 46.05793 | 21.81216 | 35047 ft | 472 kts | 117° |
| 2026-05-07 23:04 | 46.03244 | 21.89882 | 35048 ft | 472 kts | 117° |
| 2026-05-07 23:05 | 46.00670 | 21.98601 | 35051 ft | 473 kts | 116° |
| 2026-05-07 23:05 | 45.98087 | 22.07322 | 35058 ft | 473 kts | 117° |
| 2026-05-07 23:06 | 45.95511 | 22.15987 | 35059 ft | 473 kts | 117° |
| 2026-05-07 23:06 | 45.92910 | 22.24705 | 35058 ft | 473 kts | 117° |
| 2026-05-07 23:07 | 45.90326 | 22.33337 | 35067 ft | 474 kts | 117° |
| 2026-05-07 23:07 | 45.87717 | 22.42020 | 35061 ft | 474 kts | 117° |
| 2026-05-07 23:08 | 45.85093 | 22.50728 | 35067 ft | 474 kts | 117° |
| 2026-05-07 23:08 | 45.82479 | 22.59372 | 35070 ft | 474 kts | 117° |
| 2026-05-07 23:09 | 45.79835 | 22.68080 | 35077 ft | 473 kts | 117° |
| 2026-05-07 23:09 | 45.77218 | 22.76673 | 35074 ft | 473 kts | 117° |
| 2026-05-07 23:10 | 45.74588 | 22.85280 | 35073 ft | 474 kts | 117° |
| 2026-05-07 23:10 | 45.71928 | 22.93952 | 35069 ft | 474 kts | 117° |
| 2026-05-07 23:11 | 45.69293 | 23.02519 | 35080 ft | 471 kts | 117° |
| 2026-05-07 23:11 | 45.66640 | 23.11114 | 35079 ft | 471 kts | 117° |
| 2026-05-07 23:12 | 45.63982 | 23.19694 | 35083 ft | 471 kts | 117° |
| 2026-05-07 23:12 | 45.61331 | 23.28227 | 35085 ft | 471 kts | 117° |
| 2026-05-07 23:13 | 45.58661 | 23.36785 | 35087 ft | 471 kts | 117° |
| 2026-05-07 23:13 | 45.56003 | 23.45279 | 35109 ft | 471 kts | 117° |
| 2026-05-07 23:14 | 45.53318 | 23.53832 | 35103 ft | 471 kts | 117° |
| 2026-05-07 23:14 | 45.50640 | 23.62333 | 35106 ft | 472 kts | 117° |
| 2026-05-07 23:15 | 45.47935 | 23.70891 | 35107 ft | 473 kts | 117° |
| 2026-05-07 23:15 | 45.45224 | 23.79442 | 35106 ft | 473 kts | 117° |
| 2026-05-07 23:16 | 45.42519 | 23.87946 | 35112 ft | 473 kts | 117° |
| 2026-05-07 23:16 | 45.39794 | 23.96486 | 35091 ft | 473 kts | 117° |
| 2026-05-07 23:17 | 45.37075 | 24.04980 | 35100 ft | 472 kts | 117° |
| 2026-05-07 23:17 | 45.34358 | 24.13434 | 35092 ft | 472 kts | 117° |
| 2026-05-07 23:18 | 45.31617 | 24.21924 | 35092 ft | 471 kts | 118° |
| 2026-05-07 23:18 | 45.28898 | 24.30344 | 35089 ft | 471 kts | 117° |
| 2026-05-07 23:19 | 45.26153 | 24.38809 | 35084 ft | 471 kts | 117° |
| 2026-05-07 23:19 | 45.23414 | 24.47224 | 35080 ft | 471 kts | 117° |
| 2026-05-07 23:20 | 45.20653 | 24.55679 | 35080 ft | 471 kts | 117° |
| 2026-05-07 23:20 | 45.17904 | 24.64071 | 35084 ft | 470 kts | 117° |
| 2026-05-07 23:21 | 45.15135 | 24.72499 | 35076 ft | 469 kts | 118° |
| 2026-05-07 23:21 | 45.12383 | 24.80846 | 35080 ft | 470 kts | 118° |
| 2026-05-07 23:22 | 45.09615 | 24.89215 | 35074 ft | 469 kts | 118° |
| 2026-05-07 23:22 | 45.06838 | 24.97583 | 35075 ft | 469 kts | 118° |
| 2026-05-07 23:23 | 45.04069 | 25.05903 | 35072 ft | 469 kts | 118° |
| 2026-05-07 23:23 | 45.01281 | 25.14256 | 35067 ft | 469 kts | 118° |
| 2026-05-07 23:24 | 44.98502 | 25.22551 | 35069 ft | 469 kts | 118° |
| 2026-05-07 23:24 | 44.95701 | 25.30888 | 35063 ft | 468 kts | 118° |
| 2026-05-07 23:25 | 44.92904 | 25.39186 | 35062 ft | 468 kts | 118° |
| 2026-05-07 23:25 | 44.90116 | 25.47433 | 35063 ft | 468 kts | 118° |
| 2026-05-07 23:26 | 44.87309 | 25.55709 | 35057 ft | 468 kts | 118° |
| 2026-05-07 23:26 | 44.84497 | 25.63975 | 35055 ft | 466 kts | 118° |
| 2026-05-07 23:27 | 44.80278 | 25.76332 | 35046 ft | 467 kts | 118° |
| 2026-05-07 23:27 | 44.77470 | 25.84523 | 35045 ft | 467 kts | 118° |
| 2026-05-07 23:28 | 44.74627 | 25.92790 | 35046 ft | 465 kts | 118° |
| 2026-05-07 23:28 | 44.71814 | 26.00947 | 35047 ft | 464 kts | 118° |
| 2026-05-07 23:29 | 44.68985 | 26.09122 | 35048 ft | 464 kts | 118° |
| 2026-05-07 23:29 | 44.66151 | 26.17290 | 35047 ft | 464 kts | 118° |
| 2026-05-07 23:30 | 44.63332 | 26.25391 | 35045 ft | 463 kts | 118° |
| 2026-05-07 23:30 | 44.60495 | 26.33515 | 35045 ft | 463 kts | 118° |
| 2026-05-07 23:31 | 44.57649 | 26.41641 | 35048 ft | 463 kts | 118° |
| 2026-05-07 23:31 | 44.54821 | 26.49695 | 35048 ft | 463 kts | 118° |
| 2026-05-07 23:32 | 44.51980 | 26.57759 | 35048 ft | 463 kts | 118° |
| 2026-05-07 23:32 | 44.49115 | 26.65869 | 35048 ft | 463 kts | 118° |
| 2026-05-07 23:33 | 44.46245 | 26.73966 | 35050 ft | 463 kts | 118° |
| 2026-05-07 23:33 | 44.43390 | 26.81999 | 35050 ft | 463 kts | 118° |
| 2026-05-07 23:34 | 44.40512 | 26.90073 | 35051 ft | 463 kts | 118° |
| 2026-05-07 23:34 | 44.38114 | 26.96782 | 35050 ft | 463 kts | 119° |
| 2026-05-07 23:35 | 44.34754 | 27.06154 | 35053 ft | 463 kts | 119° |
| 2026-05-07 23:35 | 44.32340 | 27.12868 | 35048 ft | 463 kts | 118° |
| 2026-05-07 23:36 | 44.29439 | 27.20914 | 35056 ft | 464 kts | 118° |
| 2026-05-07 23:36 | 44.26536 | 27.28941 | 35059 ft | 464 kts | 119° |
| 2026-05-07 23:37 | 44.23615 | 27.36998 | 35059 ft | 464 kts | 119° |
| 2026-05-07 23:37 | 44.20703 | 27.45003 | 35057 ft | 465 kts | 118° |
| 2026-05-07 23:38 | 44.17762 | 27.53066 | 35067 ft | 466 kts | 118° |
| 2026-05-07 23:38 | 44.14826 | 27.61092 | 35069 ft | 466 kts | 118° |
| 2026-05-07 23:39 | 44.11887 | 27.69102 | 35069 ft | 466 kts | 118° |
| 2026-05-07 23:39 | 44.08921 | 27.77163 | 35077 ft | 467 kts | 118° |
| 2026-05-07 23:40 | 44.05959 | 27.85187 | 35083 ft | 468 kts | 118° |
| 2026-05-07 23:40 | 44.02977 | 27.93247 | 35082 ft | 468 kts | 118° |
| 2026-05-07 23:41 | 44.00011 | 28.01238 | 35094 ft | 468 kts | 119° |
| 2026-05-07 23:41 | 43.97013 | 28.09291 | 35095 ft | 469 kts | 118° |
| 2026-05-07 23:42 | 43.94004 | 28.17350 | 35098 ft | 469 kts | 118° |
| 2026-05-07 23:42 | 43.91009 | 28.25352 | 35099 ft | 470 kts | 118° |
| 2026-05-07 23:43 | 43.87983 | 28.33409 | 35103 ft | 470 kts | 118° |
| 2026-05-07 23:43 | 43.84971 | 28.41408 | 35104 ft | 471 kts | 118° |
| 2026-05-07 23:44 | 43.81926 | 28.49470 | 35109 ft | 471 kts | 118° |
| 2026-05-07 23:44 | 43.78880 | 28.57513 | 35113 ft | 471 kts | 118° |
| 2026-05-07 23:45 | 43.75825 | 28.65556 | 35111 ft | 472 kts | 118° |
| 2026-05-07 23:45 | 43.72771 | 28.73575 | 35118 ft | 473 kts | 118° |
| 2026-05-07 23:46 | 43.69617 | 28.81581 | 35121 ft | 473 kts | 122° |
| 2026-05-07 23:46 | 43.65936 | 28.89025 | 35117 ft | 472 kts | 127° |
| 2026-05-07 23:47 | 43.62004 | 28.96324 | 35118 ft | 473 kts | 127° |
| 2026-05-07 23:47 | 43.58074 | 29.03644 | 35117 ft | 474 kts | 127° |
| 2026-05-07 23:48 | 43.54205 | 29.10947 | 35117 ft | 474 kts | 127° |
| 2026-05-07 23:48 | 43.50316 | 29.18320 | 35116 ft | 475 kts | 126° |
| 2026-05-07 23:49 | 43.46423 | 29.25691 | 35124 ft | 475 kts | 126° |
| 2026-05-07 23:49 | 43.42541 | 29.33019 | 35117 ft | 475 kts | 127° |
| 2026-05-07 23:50 | 43.38639 | 29.40361 | 35118 ft | 475 kts | 127° |
| 2026-05-07 23:50 | 43.34740 | 29.47678 | 35122 ft | 477 kts | 126° |
| 2026-05-07 23:51 | 43.30827 | 29.55004 | 35118 ft | 478 kts | 126° |
| 2026-05-07 23:51 | 43.26884 | 29.62368 | 35119 ft | 478 kts | 126° |
| 2026-05-07 23:52 | 43.22937 | 29.69722 | 35120 ft | 478 kts | 127° |
| 2026-05-07 23:52 | 43.19013 | 29.77014 | 35125 ft | 478 kts | 127° |
| 2026-05-07 23:53 | 43.15054 | 29.84353 | 35120 ft | 478 kts | 127° |
| 2026-05-07 23:53 | 43.11109 | 29.91648 | 35120 ft | 478 kts | 127° |
| 2026-05-07 23:54 | 43.07145 | 29.98960 | 35124 ft | 479 kts | 126° |
| 2026-05-07 23:54 | 43.03160 | 30.06292 | 35117 ft | 479 kts | 127° |
| 2026-05-07 23:55 | 42.99168 | 30.13621 | 35120 ft | 479 kts | 127° |
| 2026-05-07 23:55 | 42.95203 | 30.20880 | 35119 ft | 479 kts | 127° |
| 2026-05-07 23:56 | 42.91200 | 30.28190 | 35124 ft | 481 kts | 127° |
| 2026-05-07 23:56 | 42.87208 | 30.35464 | 35122 ft | 481 kts | 127° |
| 2026-05-07 23:57 | 42.83188 | 30.42771 | 35127 ft | 481 kts | 127° |
| 2026-05-07 23:57 | 42.79182 | 30.50035 | 35126 ft | 483 kts | 126° |
| 2026-05-07 23:58 | 42.75146 | 30.57335 | 35126 ft | 483 kts | 126° |
| 2026-05-07 23:58 | 42.73375 | 30.61220 | 35128 ft | 481 kts | 113° |
| 2026-05-07 23:58 | 42.72157 | 30.65448 | 35127 ft | 479 kts | 106° |
| 2026-05-07 23:59 | 42.70378 | 30.74202 | 35131 ft | 479 kts | 102° |
| 2026-05-07 23:59 | 42.68717 | 30.82938 | 35129 ft | 480 kts | 103° |
| 2026-05-08 00:00 | 42.66899 | 30.91712 | 35132 ft | 481 kts | 104° |
| 2026-05-08 00:00 | 42.65004 | 31.00377 | 35132 ft | 481 kts | 104° |
| 2026-05-08 00:01 | 42.63064 | 31.09111 | 35130 ft | 481 kts | 104° |
| 2026-05-08 00:01 | 42.61136 | 31.17767 | 35129 ft | 481 kts | 104° |
| 2026-05-08 00:02 | 42.59195 | 31.26469 | 35130 ft | 480 kts | 104° |
| 2026-05-08 00:02 | 42.57263 | 31.35110 | 35130 ft | 480 kts | 104° |
| 2026-05-08 00:03 | 42.55318 | 31.43775 | 35127 ft | 480 kts | 104° |
| 2026-05-08 00:03 | 42.53364 | 31.52446 | 35127 ft | 480 kts | 104° |
| 2026-05-08 00:04 | 42.51400 | 31.61125 | 35129 ft | 480 kts | 104° |
| 2026-05-08 00:04 | 42.49445 | 31.69726 | 35138 ft | 480 kts | 104° |
| 2026-05-08 00:05 | 42.47471 | 31.78378 | 35129 ft | 480 kts | 104° |
| 2026-05-08 00:05 | 42.45490 | 31.87028 | 35129 ft | 480 kts | 104° |
| 2026-05-08 00:06 | 42.43515 | 31.95619 | 35127 ft | 480 kts | 104° |
| 2026-05-08 00:06 | 42.41518 | 32.04274 | 35130 ft | 480 kts | 104° |
| 2026-05-08 00:07 | 42.39530 | 32.12858 | 35127 ft | 480 kts | 104° |
| 2026-05-08 00:07 | 42.37526 | 32.21471 | 35127 ft | 480 kts | 104° |
| 2026-05-08 00:08 | 42.35525 | 32.30044 | 35127 ft | 480 kts | 104° |
| 2026-05-08 00:08 | 42.33505 | 32.38661 | 35124 ft | 480 kts | 104° |
| 2026-05-08 00:09 | 42.31480 | 32.47267 | 35124 ft | 480 kts | 104° |
| 2026-05-08 00:09 | 42.29451 | 32.55858 | 35123 ft | 479 kts | 104° |
| 2026-05-08 00:10 | 42.27425 | 32.64403 | 35124 ft | 478 kts | 104° |
| 2026-05-08 00:10 | 42.25398 | 32.72920 | 35124 ft | 478 kts | 104° |
| 2026-05-08 00:11 | 42.23355 | 32.81472 | 35121 ft | 478 kts | 104° |
| 2026-05-08 00:11 | 42.21301 | 32.90040 | 35121 ft | 478 kts | 104° |
| 2026-05-08 00:12 | 42.19254 | 32.98545 | 35118 ft | 478 kts | 104° |
| 2026-05-08 00:12 | 42.17190 | 33.07093 | 35124 ft | 478 kts | 104° |
| 2026-05-08 00:13 | 42.15136 | 33.15563 | 35123 ft | 478 kts | 105° |
| 2026-05-08 00:13 | 42.13056 | 33.24111 | 35126 ft | 478 kts | 105° |
| 2026-05-08 00:14 | 42.10987 | 33.32579 | 35121 ft | 478 kts | 104° |
| 2026-05-08 00:14 | 42.08906 | 33.41070 | 35130 ft | 478 kts | 105° |
| 2026-05-08 00:15 | 42.06809 | 33.49592 | 35138 ft | 478 kts | 105° |
| 2026-05-08 00:15 | 42.04707 | 33.58104 | 35144 ft | 478 kts | 105° |
| 2026-05-08 00:16 | 42.02612 | 33.66557 | 35149 ft | 479 kts | 104° |
| 2026-05-08 00:16 | 42.00490 | 33.75087 | 35149 ft | 479 kts | 105° |
| 2026-05-08 00:17 | 41.98378 | 33.83546 | 35152 ft | 479 kts | 105° |
| 2026-05-08 00:17 | 41.96244 | 33.92064 | 35156 ft | 479 kts | 105° |
| 2026-05-08 00:18 | 41.94105 | 34.00571 | 35142 ft | 479 kts | 105° |
| 2026-05-08 00:18 | 41.91973 | 34.09014 | 35145 ft | 479 kts | 105° |
| 2026-05-08 00:19 | 41.89833 | 34.17465 | 35144 ft | 479 kts | 105° |
| 2026-05-08 00:19 | 41.87672 | 34.25967 | 35153 ft | 479 kts | 105° |
| 2026-05-08 00:20 | 41.85523 | 34.34394 | 35154 ft | 479 kts | 105° |
| 2026-05-08 00:20 | 41.83367 | 34.42815 | 35151 ft | 479 kts | 105° |
| 2026-05-08 00:21 | 41.81193 | 34.51277 | 35168 ft | 479 kts | 105° |
| 2026-05-08 00:21 | 41.79018 | 34.59717 | 35160 ft | 479 kts | 105° |
| 2026-05-08 00:22 | 41.77204 | 34.66728 | 35158 ft | 478 kts | 105° |
| 2026-05-08 00:22 | 41.75016 | 34.75165 | 35164 ft | 479 kts | 106° |
| 2026-05-08 00:23 | 41.72834 | 34.83543 | 35170 ft | 478 kts | 106° |
| 2026-05-08 00:23 | 41.70639 | 34.91943 | 35157 ft | 477 kts | 106° |
| 2026-05-08 00:24 | 41.68436 | 35.00345 | 35148 ft | 476 kts | 106° |
| 2026-05-08 00:24 | 41.66256 | 35.08633 | 35143 ft | 475 kts | 106° |
| 2026-05-08 00:25 | 41.64050 | 35.16991 | 35149 ft | 474 kts | 107° |
| 2026-05-08 00:25 | 41.61853 | 35.25286 | 35147 ft | 474 kts | 107° |
| 2026-05-08 00:26 | 41.59645 | 35.33595 | 35147 ft | 474 kts | 107° |
| 2026-05-08 00:26 | 41.57444 | 35.41850 | 35161 ft | 474 kts | 107° |
| 2026-05-08 00:27 | 41.55226 | 35.50136 | 35146 ft | 473 kts | 107° |
| 2026-05-08 00:27 | 41.53002 | 35.58418 | 35146 ft | 473 kts | 107° |
| 2026-05-08 00:28 | 41.50787 | 35.66641 | 35148 ft | 473 kts | 107° |
| 2026-05-08 00:28 | 41.48551 | 35.74916 | 35148 ft | 473 kts | 107° |
| 2026-05-08 00:29 | 41.46321 | 35.83137 | 35155 ft | 473 kts | 107° |
| 2026-05-08 00:29 | 41.44073 | 35.91401 | 35155 ft | 473 kts | 107° |
| 2026-05-08 00:30 | 41.41833 | 35.99608 | 35156 ft | 473 kts | 107° |
| 2026-05-08 00:30 | 41.39571 | 36.07866 | 35162 ft | 472 kts | 107° |
| 2026-05-08 00:31 | 41.37315 | 36.16079 | 35171 ft | 472 kts | 107° |
| 2026-05-08 00:31 | 41.35046 | 36.24308 | 35168 ft | 472 kts | 107° |
| 2026-05-08 00:32 | 41.32787 | 36.32475 | 35183 ft | 472 kts | 108° |
| 2026-05-08 00:32 | 41.30507 | 36.40690 | 35175 ft | 472 kts | 108° |
| 2026-05-08 00:33 | 41.28241 | 36.48828 | 35172 ft | 472 kts | 108° |
| 2026-05-08 00:33 | 41.26438 | 36.57156 | 35184 ft | 463 kts | 89° |
| 2026-05-08 00:34 | 41.26642 | 36.61397 | 35186 ft | 457 kts | 77° |
| 2026-05-08 00:34 | 41.27309 | 36.65469 | 35189 ft | 455 kts | 72° |
| 2026-05-08 00:34 | 41.28992 | 36.73595 | 35183 ft | 456 kts | 72° |
| 2026-05-08 00:35 | 41.30497 | 36.81818 | 35179 ft | 457 kts | 75° |
| 2026-05-08 00:35 | 41.31773 | 36.90067 | 35177 ft | 457 kts | 76° |
| 2026-05-08 00:36 | 41.32971 | 36.98401 | 35177 ft | 458 kts | 76° |
| 2026-05-08 00:36 | 41.34159 | 37.06748 | 35176 ft | 458 kts | 76° |
| 2026-05-08 00:37 | 41.35341 | 37.15020 | 35176 ft | 456 kts | 76° |
| 2026-05-08 00:38 | 41.37111 | 37.27429 | 35176 ft | 456 kts | 76° |
| 2026-05-08 00:38 | 41.38293 | 37.35758 | 35175 ft | 457 kts | 76° |
| 2026-05-08 00:39 | 41.39469 | 37.44098 | 35175 ft | 457 kts | 76° |
| 2026-05-08 00:39 | 41.40629 | 37.52370 | 35177 ft | 456 kts | 77° |
| 2026-05-08 00:40 | 41.41789 | 37.60692 | 35178 ft | 455 kts | 77° |
| 2026-05-08 00:40 | 41.42935 | 37.68957 | 35178 ft | 455 kts | 77° |
| 2026-05-08 00:41 | 41.44082 | 37.77276 | 35181 ft | 456 kts | 77° |
| 2026-05-08 00:41 | 41.45218 | 37.85555 | 35179 ft | 457 kts | 77° |
| 2026-05-08 00:42 | 41.46353 | 37.93881 | 35185 ft | 455 kts | 77° |
| 2026-05-08 00:42 | 41.47476 | 38.02166 | 35183 ft | 454 kts | 77° |
| 2026-05-08 00:43 | 41.48596 | 38.10475 | 35185 ft | 454 kts | 77° |
| 2026-05-08 00:43 | 41.49701 | 38.18710 | 35178 ft | 454 kts | 77° |
| 2026-05-08 00:44 | 41.50803 | 38.26978 | 35187 ft | 454 kts | 77° |
| 2026-05-08 00:44 | 41.51905 | 38.35292 | 35180 ft | 454 kts | 77° |
| 2026-05-08 00:45 | 41.52998 | 38.43588 | 35183 ft | 453 kts | 77° |
| 2026-05-08 00:45 | 41.54079 | 38.51835 | 35189 ft | 453 kts | 77° |
| 2026-05-08 00:46 | 41.55159 | 38.60123 | 35184 ft | 453 kts | 77° |
| 2026-05-08 00:46 | 41.56235 | 38.68437 | 35184 ft | 453 kts | 77° |
| 2026-05-08 00:47 | 41.57296 | 38.76672 | 35185 ft | 452 kts | 78° |
| 2026-05-08 00:47 | 41.58353 | 38.84933 | 35192 ft | 452 kts | 78° |
| 2026-05-08 00:48 | 41.59408 | 38.93227 | 35190 ft | 453 kts | 78° |
| 2026-05-08 00:48 | 41.60461 | 39.01550 | 35189 ft | 453 kts | 78° |
| 2026-05-08 00:49 | 41.61504 | 39.09848 | 35195 ft | 453 kts | 78° |
| 2026-05-08 00:49 | 41.62538 | 39.18123 | 35194 ft | 453 kts | 78° |
| 2026-05-08 00:50 | 41.63572 | 39.26452 | 35198 ft | 453 kts | 78° |
| 2026-05-08 00:50 | 41.64600 | 39.34782 | 35201 ft | 453 kts | 78° |
| 2026-05-08 00:51 | 41.65616 | 39.43059 | 35201 ft | 454 kts | 78° |
| 2026-05-08 00:51 | 41.66637 | 39.51432 | 35204 ft | 455 kts | 78° |
| 2026-05-08 00:52 | 41.67645 | 39.59755 | 35197 ft | 454 kts | 78° |
| 2026-05-08 00:52 | 41.68650 | 39.68105 | 35197 ft | 454 kts | 78° |
| 2026-05-08 00:53 | 41.69644 | 39.76420 | 35200 ft | 454 kts | 79° |
| 2026-05-08 00:53 | 41.70636 | 39.84763 | 35200 ft | 454 kts | 79° |
| 2026-05-08 00:54 | 41.71622 | 39.93112 | 35205 ft | 454 kts | 79° |
| 2026-05-08 00:54 | 41.72605 | 40.01476 | 35198 ft | 455 kts | 79° |
| 2026-05-08 00:55 | 41.73583 | 40.09872 | 35197 ft | 456 kts | 79° |
| 2026-05-08 00:55 | 41.74547 | 40.18195 | 35194 ft | 456 kts | 79° |
| 2026-05-08 00:56 | 41.75516 | 40.26615 | 35199 ft | 456 kts | 79° |
| 2026-05-08 00:56 | 41.76473 | 40.34985 | 35197 ft | 456 kts | 79° |
| 2026-05-08 00:57 | 41.77427 | 40.43385 | 35197 ft | 455 kts | 79° |
| 2026-05-08 00:57 | 41.78367 | 40.51723 | 35197 ft | 455 kts | 80° |
| 2026-05-08 00:58 | 41.79308 | 40.60122 | 35194 ft | 455 kts | 80° |
| 2026-05-08 00:58 | 41.79864 | 40.68585 | 35195 ft | 457 kts | 90° |
| 2026-05-08 00:59 | 41.79286 | 40.77029 | 35194 ft | 458 kts | 96° |
| 2026-05-08 00:59 | 41.78430 | 40.85502 | 35197 ft | 458 kts | 96° |
| 2026-05-08 01:00 | 41.77636 | 40.93969 | 35195 ft | 457 kts | 95° |
| 2026-05-08 01:00 | 41.76915 | 41.02404 | 35195 ft | 459 kts | 95° |
| 2026-05-08 01:01 | 41.76209 | 41.10930 | 35191 ft | 459 kts | 95° |
| 2026-05-08 01:01 | 41.75504 | 41.19379 | 35189 ft | 459 kts | 95° |
| 2026-05-08 01:02 | 41.74783 | 41.27902 | 35182 ft | 459 kts | 95° |
| 2026-05-08 01:02 | 41.74059 | 41.36360 | 35183 ft | 460 kts | 95° |
| 2026-05-08 01:03 | 41.73322 | 41.44883 | 35182 ft | 461 kts | 95° |
| 2026-05-08 01:03 | 41.72579 | 41.53408 | 35184 ft | 461 kts | 96° |
| 2026-05-08 01:04 | 41.71833 | 41.61886 | 35183 ft | 461 kts | 96° |
| 2026-05-08 01:04 | 41.71077 | 41.70420 | 35183 ft | 461 kts | 96° |
| 2026-05-08 01:05 | 41.70313 | 41.78968 | 35184 ft | 462 kts | 96° |
| 2026-05-08 01:05 | 41.69547 | 41.87459 | 35183 ft | 462 kts | 96° |
| 2026-05-08 01:06 | 41.68769 | 41.96011 | 35190 ft | 462 kts | 96° |
| 2026-05-08 01:06 | 41.67988 | 42.04517 | 35201 ft | 462 kts | 96° |
| 2026-05-08 01:07 | 41.67199 | 42.13050 | 35203 ft | 462 kts | 96° |
| 2026-05-08 01:07 | 41.66401 | 42.21614 | 35211 ft | 463 kts | 97° |
| 2026-05-08 01:08 | 41.65599 | 42.30138 | 35214 ft | 463 kts | 97° |
| 2026-05-08 01:08 | 41.64786 | 42.38720 | 35218 ft | 463 kts | 97° |
| 2026-05-08 01:09 | 41.63972 | 42.47237 | 35216 ft | 463 kts | 97° |
| 2026-05-08 01:09 | 41.63147 | 42.55819 | 35221 ft | 465 kts | 97° |
| 2026-05-08 01:10 | 41.62320 | 42.64332 | 35222 ft | 465 kts | 97° |
| 2026-05-08 01:10 | 41.61619 | 42.71503 | 35224 ft | 465 kts | 97° |
| 2026-05-08 01:11 | 41.60774 | 42.80077 | 35222 ft | 465 kts | 97° |
| 2026-05-08 01:11 | 41.59927 | 42.88615 | 35223 ft | 465 kts | 97° |
| 2026-05-08 01:12 | 41.59069 | 42.97198 | 35225 ft | 466 kts | 98° |
| 2026-05-08 01:12 | 41.58202 | 43.05803 | 35224 ft | 467 kts | 98° |
| 2026-05-08 01:13 | 41.57332 | 43.14361 | 35230 ft | 467 kts | 98° |
| 2026-05-08 01:13 | 41.56453 | 43.22959 | 35226 ft | 467 kts | 98° |
| 2026-05-08 01:14 | 41.55572 | 43.31504 | 35225 ft | 467 kts | 98° |
| 2026-05-08 01:14 | 41.54677 | 43.40123 | 35228 ft | 468 kts | 98° |
| 2026-05-08 01:15 | 41.53774 | 43.48757 | 35224 ft | 469 kts | 98° |
| 2026-05-08 01:15 | 41.52870 | 43.57329 | 35225 ft | 469 kts | 99° |
| 2026-05-08 01:16 | 41.51954 | 43.65949 | 35226 ft | 469 kts | 99° |
| 2026-05-08 01:16 | 41.51031 | 43.74586 | 35222 ft | 471 kts | 99° |
| 2026-05-08 01:17 | 41.50098 | 43.83249 | 35214 ft | 471 kts | 99° |
| 2026-05-08 01:17 | 41.49161 | 43.91874 | 35211 ft | 471 kts | 99° |
| 2026-05-08 01:18 | 41.48211 | 44.00561 | 35215 ft | 471 kts | 99° |
| 2026-05-08 01:18 | 41.47265 | 44.09165 | 35212 ft | 472 kts | 100° |
| 2026-05-08 01:19 | 41.46303 | 44.17842 | 35214 ft | 474 kts | 100° |
| 2026-05-08 01:19 | 41.45331 | 44.26542 | 35214 ft | 474 kts | 101° |
| 2026-05-08 01:20 | 41.44352 | 44.35245 | 35211 ft | 474 kts | 101° |
| 2026-05-08 01:20 | 41.43374 | 44.43887 | 35208 ft | 474 kts | 101° |
| 2026-05-08 01:21 | 41.42380 | 44.52606 | 35200 ft | 474 kts | 101° |
| 2026-05-08 01:21 | 41.41388 | 44.61245 | 35200 ft | 474 kts | 101° |
| 2026-05-08 01:22 | 41.40383 | 44.69944 | 35199 ft | 474 kts | 101° |
| 2026-05-08 01:22 | 41.39372 | 44.78631 | 35192 ft | 474 kts | 101° |
| 2026-05-08 01:23 | 41.38361 | 44.87261 | 35185 ft | 475 kts | 101° |
| 2026-05-08 01:23 | 41.37332 | 44.95985 | 35186 ft | 476 kts | 102° |
| 2026-05-08 01:24 | 41.36301 | 45.04669 | 35186 ft | 477 kts | 102° |
| 2026-05-08 01:24 | 41.34806 | 45.13264 | 35180 ft | 473 kts | 110° |
| 2026-05-08 01:25 | 41.32677 | 45.21495 | 35175 ft | 472 kts | 113° |
| 2026-05-08 01:25 | 41.30441 | 45.29716 | 35179 ft | 473 kts | 113° |
| 2026-05-08 01:26 | 41.28254 | 45.37965 | 35173 ft | 473 kts | 112° |
| 2026-05-08 01:26 | 41.26093 | 45.46285 | 35170 ft | 474 kts | 112° |
| 2026-05-08 01:27 | 41.23959 | 45.54521 | 35168 ft | 475 kts | 113° |
| 2026-05-08 01:27 | 41.21792 | 45.62851 | 35171 ft | 475 kts | 113° |
| 2026-05-08 01:28 | 41.19629 | 45.71115 | 35172 ft | 475 kts | 113° |
| 2026-05-08 01:28 | 41.17445 | 45.79409 | 35164 ft | 475 kts | 114° |
| 2026-05-08 01:29 | 41.15245 | 45.87733 | 35164 ft | 477 kts | 114° |
| 2026-05-08 01:29 | 41.13057 | 45.95979 | 35165 ft | 477 kts | 114° |
| 2026-05-08 01:30 | 41.10840 | 46.04313 | 35168 ft | 477 kts | 114° |
| 2026-05-08 01:30 | 41.08637 | 46.12567 | 35149 ft | 477 kts | 115° |
| 2026-05-08 01:31 | 41.06409 | 46.20894 | 35173 ft | 479 kts | 115° |
| 2026-05-08 01:31 | 41.04173 | 46.29215 | 35177 ft | 479 kts | 115° |
| 2026-05-08 01:32 | 41.01946 | 46.37540 | 35175 ft | 479 kts | 115° |
| 2026-05-08 01:32 | 40.99732 | 46.45829 | 35162 ft | 479 kts | 116° |
| 2026-05-08 01:33 | 40.97495 | 46.54169 | 35175 ft | 480 kts | 116° |
| 2026-05-08 01:33 | 40.95264 | 46.62457 | 35168 ft | 480 kts | 116° |
| 2026-05-08 01:34 | 40.93011 | 46.70794 | 35167 ft | 480 kts | 116° |
| 2026-05-08 01:34 | 40.90764 | 46.79081 | 35160 ft | 481 kts | 117° |
| 2026-05-08 01:35 | 40.88496 | 46.87401 | 35158 ft | 481 kts | 117° |
| 2026-05-08 01:35 | 40.86214 | 46.95730 | 35163 ft | 481 kts | 117° |
| 2026-05-08 01:36 | 40.83925 | 47.04050 | 35150 ft | 481 kts | 117° |
| 2026-05-08 01:36 | 40.81639 | 47.12335 | 35155 ft | 483 kts | 117° |
| 2026-05-08 01:37 | 40.79337 | 47.20629 | 35150 ft | 483 kts | 117° |
| 2026-05-08 01:37 | 40.77005 | 47.28970 | 35150 ft | 483 kts | 118° |
| 2026-05-08 01:38 | 40.74669 | 47.37293 | 35144 ft | 484 kts | 118° |
| 2026-05-08 01:38 | 40.72338 | 47.45591 | 35149 ft | 484 kts | 118° |
| 2026-05-08 01:39 | 40.69994 | 47.53930 | 35155 ft | 484 kts | 118° |
| 2026-05-08 01:39 | 40.67645 | 47.62259 | 35151 ft | 484 kts | 118° |
| 2026-05-08 01:40 | 40.65303 | 47.70536 | 35149 ft | 484 kts | 118° |
| 2026-05-08 01:40 | 40.62939 | 47.78863 | 35149 ft | 484 kts | 118° |
| 2026-05-08 01:41 | 40.60573 | 47.87169 | 35154 ft | 484 kts | 118° |
| 2026-05-08 01:41 | 40.58340 | 47.95490 | 35122 ft | 493 kts | 108° |
| 2026-05-08 01:41 | 40.57969 | 48.00043 | 35146 ft | 503 kts | 97° |
| 2026-05-08 01:42 | 40.58034 | 48.04679 | 35152 ft | 508 kts | 92° |
| 2026-05-08 01:42 | 40.58581 | 48.13934 | 35148 ft | 511 kts | 91° |
| 2026-05-08 01:43 | 40.59069 | 48.23243 | 35149 ft | 509 kts | 92° |
| 2026-05-08 01:43 | 40.59384 | 48.32568 | 35148 ft | 508 kts | 94° |
| 2026-05-08 01:44 | 40.59615 | 48.41823 | 35146 ft | 508 kts | 94° |
| 2026-05-08 01:44 | 40.59829 | 48.51138 | 35139 ft | 509 kts | 94° |
| 2026-05-08 01:45 | 40.60044 | 48.60468 | 35152 ft | 509 kts | 94° |
| 2026-05-08 01:45 | 40.60255 | 48.69728 | 35152 ft | 510 kts | 94° |
| 2026-05-08 01:46 | 40.60459 | 48.79071 | 35149 ft | 509 kts | 94° |
| 2026-05-08 01:46 | 40.60655 | 48.88397 | 35147 ft | 509 kts | 94° |
| 2026-05-08 01:47 | 40.60843 | 48.97671 | 35143 ft | 509 kts | 94° |
| 2026-05-08 01:47 | 40.61025 | 49.07006 | 35131 ft | 510 kts | 94° |
| 2026-05-08 01:48 | 40.61314 | 49.20984 | 35121 ft | 511 kts | 92° |
| 2026-05-08 01:48 | 40.61800 | 49.30338 | 35113 ft | 513 kts | 90° |
| 2026-05-08 01:49 | 40.62393 | 49.39741 | 35108 ft | 513 kts | 90° |
| 2026-05-08 01:49 | 40.62957 | 49.49050 | 35108 ft | 513 kts | 91° |
| 2026-05-08 01:50 | 40.63492 | 49.58438 | 35101 ft | 513 kts | 91° |
| 2026-05-08 01:50 | 40.64006 | 49.67775 | 35094 ft | 513 kts | 91° |
| 2026-05-08 01:51 | 40.64513 | 49.77167 | 35094 ft | 513 kts | 91° |
| 2026-05-08 01:51 | 40.65012 | 49.86525 | 35102 ft | 514 kts | 91° |
| 2026-05-08 01:52 | 40.65507 | 49.95925 | 35098 ft | 513 kts | 91° |
| 2026-05-08 01:52 | 40.65992 | 50.05272 | 35099 ft | 513 kts | 91° |
| 2026-05-08 01:53 | 40.66470 | 50.14661 | 35084 ft | 514 kts | 91° |
| 2026-05-08 01:53 | 40.66942 | 50.24075 | 35094 ft | 514 kts | 91° |
| 2026-05-08 01:54 | 40.67403 | 50.33418 | 35100 ft | 514 kts | 91° |
| 2026-05-08 01:54 | 40.67861 | 50.42846 | 35099 ft | 514 kts | 91° |
| 2026-05-08 01:55 | 40.68306 | 50.52190 | 35101 ft | 514 kts | 91° |
| 2026-05-08 01:55 | 40.68746 | 50.61584 | 35108 ft | 514 kts | 91° |
| 2026-05-08 01:56 | 40.69179 | 50.70996 | 35085 ft | 514 kts | 91° |
| 2026-05-08 01:56 | 40.69603 | 50.80396 | 35108 ft | 513 kts | 91° |
| 2026-05-08 01:57 | 40.70019 | 50.89775 | 35103 ft | 513 kts | 91° |
| 2026-05-08 01:57 | 40.70427 | 50.99135 | 35116 ft | 513 kts | 91° |
| 2026-05-08 01:58 | 40.70828 | 51.08528 | 35124 ft | 512 kts | 91° |
| 2026-05-08 01:58 | 40.71156 | 51.16334 | 35124 ft | 512 kts | 91° |
| 2026-05-08 01:59 | 40.71541 | 51.25677 | 35124 ft | 512 kts | 91° |
| 2026-05-08 01:59 | 40.71921 | 51.35069 | 35125 ft | 513 kts | 92° |
| 2026-05-08 02:00 | 40.72292 | 51.44451 | 35126 ft | 513 kts | 92° |
| 2026-05-08 02:00 | 40.72987 | 51.53869 | 35129 ft | 517 kts | 84° |
| 2026-05-08 02:01 | 40.74483 | 51.63131 | 35126 ft | 519 kts | 80° |
| 2026-05-08 02:01 | 40.76147 | 51.72420 | 35127 ft | 519 kts | 80° |
| 2026-05-08 02:02 | 40.77743 | 51.81724 | 35127 ft | 519 kts | 81° |
| 2026-05-08 02:02 | 40.79264 | 51.90980 | 35125 ft | 519 kts | 81° |
| 2026-05-08 02:03 | 40.80770 | 52.00316 | 35116 ft | 519 kts | 82° |
| 2026-05-08 02:03 | 40.82259 | 52.09597 | 35102 ft | 519 kts | 82° |
| 2026-05-08 02:04 | 40.83755 | 52.18958 | 35121 ft | 521 kts | 82° |
| 2026-05-08 02:04 | 40.85242 | 52.28295 | 35121 ft | 521 kts | 82° |
| 2026-05-08 02:05 | 40.86726 | 52.37668 | 35122 ft | 521 kts | 82° |
| 2026-05-08 02:05 | 40.88206 | 52.47065 | 35123 ft | 521 kts | 82° |
| 2026-05-08 02:06 | 40.89678 | 52.56471 | 35127 ft | 521 kts | 82° |
| 2026-05-08 02:06 | 40.90750 | 52.65871 | 35124 ft | 517 kts | 90° |
| 2026-05-08 02:07 | 40.91151 | 52.75364 | 35124 ft | 516 kts | 92° |
| 2026-05-08 02:07 | 40.91441 | 52.84855 | 35123 ft | 516 kts | 92° |
| 2026-05-08 02:08 | 40.91780 | 52.94312 | 35124 ft | 519 kts | 92° |
| 2026-05-08 02:08 | 40.92162 | 53.03862 | 35128 ft | 521 kts | 91° |
| 2026-05-08 02:09 | 40.92549 | 53.13386 | 35129 ft | 521 kts | 92° |
| 2026-05-08 02:09 | 40.92922 | 53.22991 | 35122 ft | 521 kts | 92° |
| 2026-05-08 02:10 | 40.93280 | 53.32541 | 35120 ft | 521 kts | 92° |
| 2026-05-08 02:10 | 40.93631 | 53.42136 | 35123 ft | 521 kts | 92° |
| 2026-05-08 02:11 | 40.93973 | 53.51724 | 35125 ft | 522 kts | 92° |
| 2026-05-08 02:11 | 40.94309 | 53.61335 | 35124 ft | 522 kts | 92° |
| 2026-05-08 02:12 | 40.94635 | 53.70862 | 35121 ft | 522 kts | 92° |
| 2026-05-08 02:12 | 40.94955 | 53.80474 | 35121 ft | 522 kts | 92° |
| 2026-05-08 02:13 | 40.95265 | 53.90015 | 35122 ft | 523 kts | 92° |
| 2026-05-08 02:13 | 40.95569 | 53.99631 | 35122 ft | 523 kts | 92° |
| 2026-05-08 02:14 | 40.95865 | 54.09230 | 35121 ft | 523 kts | 92° |
| 2026-05-08 02:14 | 40.96154 | 54.18906 | 35124 ft | 527 kts | 92° |
| 2026-05-08 02:15 | 40.96437 | 54.28617 | 35121 ft | 528 kts | 93° |
| 2026-05-08 02:15 | 40.96710 | 54.38258 | 35118 ft | 528 kts | 93° |
| 2026-05-08 02:16 | 40.96978 | 54.47991 | 35125 ft | 527 kts | 93° |
| 2026-05-08 02:16 | 40.97237 | 54.57696 | 35124 ft | 527 kts | 93° |
| 2026-05-08 02:17 | 40.97486 | 54.67366 | 35121 ft | 527 kts | 93° |
| 2026-05-08 02:17 | 40.97728 | 54.77081 | 35120 ft | 529 kts | 93° |
| 2026-05-08 02:18 | 40.97961 | 54.86794 | 35127 ft | 532 kts | 93° |
| 2026-05-08 02:18 | 40.98184 | 54.96606 | 35114 ft | 532 kts | 93° |
| 2026-05-08 02:19 | 40.98394 | 55.06416 | 35122 ft | 533 kts | 93° |
| 2026-05-08 02:19 | 40.98593 | 55.16175 | 35123 ft | 533 kts | 93° |
| 2026-05-08 02:20 | 40.98788 | 55.26033 | 35124 ft | 533 kts | 94° |
| 2026-05-08 02:20 | 40.98973 | 55.35784 | 35089 ft | 533 kts | 94° |
| 2026-05-08 02:21 | 40.99150 | 55.45659 | 35124 ft | 538 kts | 94° |
| 2026-05-08 02:21 | 40.99319 | 55.55525 | 35130 ft | 538 kts | 94° |
| 2026-05-08 02:22 | 40.99482 | 55.65441 | 35118 ft | 539 kts | 94° |
| 2026-05-08 02:22 | 40.99636 | 55.75385 | 35114 ft | 539 kts | 94° |
| 2026-05-08 02:23 | 40.99792 | 55.85315 | 35115 ft | 539 kts | 94° |
| 2026-05-08 02:23 | 40.99951 | 55.95202 | 35112 ft | 539 kts | 94° |
| 2026-05-08 02:24 | 41.00101 | 56.05104 | 35113 ft | 541 kts | 94° |
| 2026-05-08 02:24 | 41.00244 | 56.15094 | 35110 ft | 541 kts | 94° |
| 2026-05-08 02:25 | 41.00375 | 56.25024 | 35112 ft | 542 kts | 94° |
| 2026-05-08 02:25 | 41.00500 | 56.35064 | 35108 ft | 543 kts | 94° |
| 2026-05-08 02:26 | 41.00616 | 56.45062 | 35107 ft | 543 kts | 94° |
| 2026-05-08 02:26 | 41.01023 | 56.55007 | 35105 ft | 546 kts | 86° |
| 2026-05-08 02:27 | 41.02190 | 56.64978 | 35093 ft | 548 kts | 82° |
| 2026-05-08 02:27 | 41.03497 | 56.74889 | 35105 ft | 548 kts | 83° |
| 2026-05-08 02:28 | 41.04747 | 56.84890 | 35105 ft | 548 kts | 83° |
| 2026-05-08 02:28 | 41.05930 | 56.94859 | 35098 ft | 548 kts | 83° |
| 2026-05-08 02:29 | 41.07082 | 57.04802 | 35102 ft | 547 kts | 84° |
| 2026-05-08 02:29 | 41.08230 | 57.14784 | 35097 ft | 547 kts | 84° |
| 2026-05-08 02:30 | 41.09371 | 57.24770 | 35097 ft | 547 kts | 84° |
| 2026-05-08 02:30 | 41.10497 | 57.34688 | 35094 ft | 545 kts | 84° |
| 2026-05-08 02:31 | 41.11622 | 57.44660 | 35088 ft | 545 kts | 84° |
| 2026-05-08 02:31 | 41.12731 | 57.54575 | 35089 ft | 545 kts | 84° |
| 2026-05-08 02:32 | 41.13833 | 57.64525 | 35088 ft | 545 kts | 83° |
| 2026-05-08 02:32 | 41.14923 | 57.74423 | 35097 ft | 544 kts | 84° |
| 2026-05-08 02:33 | 41.16010 | 57.84386 | 35078 ft | 544 kts | 84° |
| 2026-05-08 02:33 | 41.17083 | 57.94295 | 35083 ft | 544 kts | 84° |
| 2026-05-08 02:34 | 41.18155 | 58.04285 | 35080 ft | 544 kts | 84° |
| 2026-05-08 02:34 | 41.19216 | 58.14250 | 35079 ft | 544 kts | 84° |
| 2026-05-08 02:35 | 41.20264 | 58.24169 | 35077 ft | 544 kts | 84° |
| 2026-05-08 02:35 | 41.21307 | 58.34134 | 35075 ft | 543 kts | 84° |
| 2026-05-08 02:36 | 41.22340 | 58.44072 | 35077 ft | 542 kts | 84° |
| 2026-05-08 02:36 | 41.23359 | 58.53976 | 35061 ft | 542 kts | 84° |
| 2026-05-08 02:37 | 41.24366 | 58.63843 | 35064 ft | 542 kts | 84° |
| 2026-05-08 02:37 | 41.25369 | 58.73763 | 35060 ft | 541 kts | 84° |
| 2026-05-08 02:38 | 41.26367 | 58.83704 | 35060 ft | 540 kts | 84° |
| 2026-05-08 02:38 | 41.27348 | 58.93563 | 35065 ft | 540 kts | 84° |
| 2026-05-08 02:39 | 41.28324 | 59.03473 | 35055 ft | 540 kts | 84° |
| 2026-05-08 02:39 | 41.29292 | 59.13392 | 35055 ft | 539 kts | 84° |
| 2026-05-08 02:40 | 41.30243 | 59.23222 | 35053 ft | 539 kts | 84° |
| 2026-05-08 02:40 | 41.31192 | 59.33124 | 35050 ft | 539 kts | 84° |
| 2026-05-08 02:41 | 41.32126 | 59.42957 | 35051 ft | 537 kts | 84° |
| 2026-05-08 02:41 | 41.33054 | 59.52811 | 35041 ft | 536 kts | 84° |
| 2026-05-08 02:42 | 41.33972 | 59.62663 | 35046 ft | 537 kts | 84° |
| 2026-05-08 02:42 | 41.35460 | 59.72420 | 35036 ft | 536 kts | 72° |
| 2026-05-08 02:43 | 41.37786 | 59.81784 | 35044 ft | 534 kts | 69° |
| 2026-05-08 02:43 | 41.40228 | 59.91161 | 35045 ft | 534 kts | 70° |
| 2026-05-08 02:44 | 41.42193 | 59.98999 | 35046 ft | 534 kts | 71° |
| 2026-05-08 02:44 | 41.44483 | 60.08421 | 35047 ft | 533 kts | 71° |
| 2026-05-08 02:45 | 41.46724 | 60.17777 | 35040 ft | 533 kts | 71° |
| 2026-05-08 02:45 | 41.49319 | 60.28741 | 35053 ft | 533 kts | 71° |
| 2026-05-08 02:46 | 41.51178 | 60.36661 | 35060 ft | 531 kts | 71° |
| 2026-05-08 02:46 | 41.53366 | 60.46016 | 35068 ft | 531 kts | 71° |
| 2026-05-08 02:47 | 41.55562 | 60.55435 | 35075 ft | 531 kts | 72° |
| 2026-05-08 02:47 | 41.57754 | 60.64859 | 35082 ft | 530 kts | 71° |
| 2026-05-08 02:48 | 41.60100 | 60.74140 | 35080 ft | 528 kts | 69° |
| 2026-05-08 02:48 | 41.62563 | 60.83383 | 35061 ft | 528 kts | 69° |
| 2026-05-08 02:49 | 41.65011 | 60.92604 | 35066 ft | 528 kts | 69° |
| 2026-05-08 02:49 | 41.67447 | 61.01904 | 35030 ft | 526 kts | 69° |
| 2026-05-08 02:50 | 41.69833 | 61.11090 | 35035 ft | 526 kts | 69° |
| 2026-05-08 02:50 | 41.72224 | 61.20338 | 35031 ft | 526 kts | 69° |
| 2026-05-08 02:51 | 41.74618 | 61.29631 | 35026 ft | 526 kts | 70° |
| 2026-05-08 02:51 | 41.76990 | 61.38873 | 35041 ft | 526 kts | 70° |
| 2026-05-08 02:52 | 41.79365 | 61.48158 | 35027 ft | 526 kts | 70° |
| 2026-05-08 02:52 | 41.81737 | 61.57472 | 35041 ft | 525 kts | 70° |
| 2026-05-08 02:53 | 41.84074 | 61.66681 | 35042 ft | 524 kts | 70° |
| 2026-05-08 02:53 | 41.86421 | 61.75969 | 35039 ft | 524 kts | 70° |
| 2026-05-08 02:54 | 41.88740 | 61.85201 | 35033 ft | 524 kts | 70° |
| 2026-05-08 02:54 | 41.91050 | 61.94448 | 35037 ft | 522 kts | 70° |
| 2026-05-08 02:55 | 41.94490 | 62.08278 | 35031 ft | 522 kts | 70° |
| 2026-05-08 02:56 | 41.96793 | 62.17564 | 35033 ft | 520 kts | 70° |
| 2026-05-08 02:56 | 41.99061 | 62.26738 | 35033 ft | 519 kts | 70° |
| 2026-05-08 02:57 | 42.01332 | 62.35960 | 35031 ft | 519 kts | 70° |
| 2026-05-08 02:57 | 42.03592 | 62.45175 | 35029 ft | 519 kts | 70° |
| 2026-05-08 02:58 | 42.05833 | 62.54347 | 35023 ft | 517 kts | 70° |
| 2026-05-08 02:58 | 42.08077 | 62.63573 | 35023 ft | 517 kts | 71° |
| 2026-05-08 02:59 | 42.10311 | 62.72791 | 35024 ft | 517 kts | 71° |
| 2026-05-08 02:59 | 42.12514 | 62.81925 | 35019 ft | 515 kts | 71° |
| 2026-05-08 03:00 | 42.14727 | 62.91128 | 35020 ft | 514 kts | 71° |
| 2026-05-08 03:00 | 42.16929 | 63.00321 | 35020 ft | 515 kts | 71° |
| 2026-05-08 03:01 | 42.19113 | 63.09463 | 35023 ft | 514 kts | 71° |
| 2026-05-08 03:01 | 42.21295 | 63.18626 | 35017 ft | 512 kts | 71° |
| 2026-05-08 03:02 | 42.23471 | 63.27799 | 35015 ft | 511 kts | 71° |
| 2026-05-08 03:02 | 42.25622 | 63.36904 | 35015 ft | 511 kts | 71° |
| 2026-05-08 03:03 | 42.27776 | 63.46057 | 35012 ft | 510 kts | 71° |
| 2026-05-08 03:03 | 42.29914 | 63.55184 | 35012 ft | 510 kts | 71° |
| 2026-05-08 03:04 | 42.32034 | 63.64272 | 35007 ft | 510 kts | 71° |
| 2026-05-08 03:04 | 42.34165 | 63.73443 | 35008 ft | 509 kts | 72° |
| 2026-05-08 03:05 | 42.36270 | 63.82536 | 35011 ft | 509 kts | 72° |
| 2026-05-08 03:05 | 42.38381 | 63.91695 | 35009 ft | 509 kts | 72° |
| 2026-05-08 03:06 | 42.40465 | 64.00777 | 35008 ft | 509 kts | 72° |
| 2026-05-08 03:06 | 42.42533 | 64.09929 | 35005 ft | 507 kts | 72° |
| 2026-05-08 03:07 | 42.44579 | 64.19067 | 35007 ft | 506 kts | 72° |
| 2026-05-08 03:07 | 42.46616 | 64.28158 | 35005 ft | 506 kts | 72° |
| 2026-05-08 03:08 | 42.48673 | 64.37304 | 35004 ft | 506 kts | 72° |
| 2026-05-08 03:08 | 42.50713 | 64.46398 | 35005 ft | 506 kts | 72° |
| 2026-05-08 03:09 | 42.52752 | 64.55532 | 35005 ft | 506 kts | 72° |
| 2026-05-08 03:09 | 42.54788 | 64.64696 | 35003 ft | 506 kts | 73° |
| 2026-05-08 03:10 | 42.56796 | 64.73774 | 35004 ft | 504 kts | 73° |
| 2026-05-08 03:10 | 42.58803 | 64.82891 | 34999 ft | 504 kts | 73° |
| 2026-05-08 03:11 | 42.60805 | 64.92017 | 34992 ft | 504 kts | 73° |
| 2026-05-08 03:11 | 42.62788 | 65.01103 | 34993 ft | 502 kts | 73° |
| 2026-05-08 03:12 | 42.64769 | 65.10214 | 34991 ft | 501 kts | 73° |
| 2026-05-08 03:12 | 42.66725 | 65.19243 | 34983 ft | 501 kts | 73° |
| 2026-05-08 03:13 | 42.68684 | 65.28329 | 34979 ft | 500 kts | 73° |
| 2026-05-08 03:13 | 42.70623 | 65.37365 | 34977 ft | 499 kts | 73° |
| 2026-05-08 03:14 | 42.72552 | 65.46386 | 34968 ft | 498 kts | 73° |
| 2026-05-08 03:14 | 42.74477 | 65.55432 | 34968 ft | 498 kts | 73° |
| 2026-05-08 03:15 | 42.76402 | 65.64516 | 34964 ft | 497 kts | 73° |
| 2026-05-08 03:15 | 42.78302 | 65.73519 | 34957 ft | 497 kts | 73° |
| 2026-05-08 03:16 | 42.80201 | 65.82557 | 34956 ft | 497 kts | 73° |
| 2026-05-08 03:16 | 42.82093 | 65.91602 | 34957 ft | 496 kts | 73° |
| 2026-05-08 03:17 | 42.83982 | 66.00674 | 34949 ft | 496 kts | 74° |
| 2026-05-08 03:17 | 42.85858 | 66.09725 | 34944 ft | 495 kts | 74° |
| 2026-05-08 03:18 | 42.87698 | 66.18706 | 34947 ft | 495 kts | 74° |
| 2026-05-08 03:18 | 42.89550 | 66.27814 | 34944 ft | 495 kts | 74° |
| 2026-05-08 03:19 | 42.91367 | 66.36791 | 34940 ft | 494 kts | 74° |
| 2026-05-08 03:19 | 42.93197 | 66.45863 | 34935 ft | 494 kts | 74° |
| 2026-05-08 03:20 | 42.95014 | 66.54911 | 34942 ft | 494 kts | 74° |
| 2026-05-08 03:20 | 42.96819 | 66.63892 | 34942 ft | 493 kts | 74° |
| 2026-05-08 03:21 | 42.98644 | 66.72892 | 34941 ft | 492 kts | 74° |
| 2026-05-08 03:21 | 43.00463 | 66.81916 | 34943 ft | 492 kts | 74° |
| 2026-05-08 03:22 | 43.02255 | 66.90952 | 34945 ft | 492 kts | 75° |
| 2026-05-08 03:22 | 43.04032 | 66.99979 | 34945 ft | 491 kts | 75° |
| 2026-05-08 03:23 | 43.05808 | 67.09043 | 34947 ft | 491 kts | 75° |
| 2026-05-08 03:23 | 43.07559 | 67.18002 | 34950 ft | 491 kts | 75° |
| 2026-05-08 03:24 | 43.09319 | 67.27047 | 34957 ft | 491 kts | 75° |
| 2026-05-08 03:24 | 43.11069 | 67.36088 | 34949 ft | 490 kts | 75° |
| 2026-05-08 03:25 | 43.12798 | 67.45060 | 34951 ft | 490 kts | 75° |
| 2026-05-08 03:25 | 43.14535 | 67.54109 | 34952 ft | 490 kts | 75° |
| 2026-05-08 03:26 | 43.16257 | 67.63116 | 34953 ft | 490 kts | 75° |
| 2026-05-08 03:26 | 43.17982 | 67.72180 | 34954 ft | 490 kts | 75° |
| 2026-05-08 03:27 | 43.19686 | 67.81173 | 34955 ft | 490 kts | 75° |
| 2026-05-08 03:27 | 43.21395 | 67.90251 | 34955 ft | 490 kts | 75° |
| 2026-05-08 03:28 | 43.23079 | 67.99233 | 34954 ft | 489 kts | 76° |
| 2026-05-08 03:28 | 43.24771 | 68.08303 | 34959 ft | 488 kts | 76° |
| 2026-05-08 03:29 | 43.26437 | 68.17277 | 34957 ft | 488 kts | 76° |
| 2026-05-08 03:29 | 43.28101 | 68.26282 | 34954 ft | 488 kts | 76° |
| 2026-05-08 03:30 | 43.30489 | 68.39863 | 34963 ft | 487 kts | 79° |
| 2026-05-08 03:31 | 43.32631 | 68.58194 | 34966 ft | 486 kts | 83° |
| 2026-05-08 03:32 | 43.33839 | 68.72064 | 34966 ft | 485 kts | 84° |
| 2026-05-08 03:32 | 43.34585 | 68.81251 | 34967 ft | 485 kts | 84° |
| 2026-05-08 03:33 | 43.35350 | 68.90469 | 34972 ft | 485 kts | 84° |
| 2026-05-08 03:33 | 43.36118 | 68.99634 | 34973 ft | 485 kts | 84° |
| 2026-05-08 03:34 | 43.36757 | 69.07312 | 34979 ft | 484 kts | 84° |
| 2026-05-08 03:34 | 43.37520 | 69.16548 | 34976 ft | 484 kts | 84° |
| 2026-05-08 03:35 | 43.38301 | 69.25706 | 34974 ft | 484 kts | 84° |
| 2026-05-08 03:35 | 43.39105 | 69.34930 | 34977 ft | 485 kts | 84° |
| 2026-05-08 03:36 | 43.39896 | 69.44098 | 34980 ft | 485 kts | 84° |
| 2026-05-08 03:36 | 43.40683 | 69.53349 | 34985 ft | 486 kts | 84° |
| 2026-05-08 03:37 | 43.41460 | 69.62594 | 34991 ft | 486 kts | 84° |
| 2026-05-08 03:37 | 43.42223 | 69.71774 | 34990 ft | 486 kts | 84° |
| 2026-05-08 03:38 | 43.42999 | 69.81025 | 34992 ft | 486 kts | 84° |
| 2026-05-08 03:38 | 43.43788 | 69.90233 | 34989 ft | 486 kts | 84° |
| 2026-05-08 03:39 | 43.44578 | 69.99508 | 34993 ft | 486 kts | 84° |
| 2026-05-08 03:39 | 43.45352 | 70.08718 | 34990 ft | 486 kts | 84° |
| 2026-05-08 03:40 | 43.46122 | 70.17987 | 34995 ft | 486 kts | 84° |
| 2026-05-08 03:40 | 43.46878 | 70.27182 | 34990 ft | 486 kts | 84° |
| 2026-05-08 03:41 | 43.47633 | 70.36459 | 34986 ft | 486 kts | 84° |
| 2026-05-08 03:41 | 43.48379 | 70.45731 | 34987 ft | 486 kts | 84° |
| 2026-05-08 03:42 | 43.49111 | 70.54910 | 34990 ft | 484 kts | 84° |
| 2026-05-08 03:42 | 43.49840 | 70.64149 | 34987 ft | 484 kts | 84° |
| 2026-05-08 03:43 | 43.50561 | 70.73391 | 34987 ft | 484 kts | 84° |
| 2026-05-08 03:43 | 43.51270 | 70.82561 | 34990 ft | 484 kts | 84° |
| 2026-05-08 03:44 | 43.51972 | 70.91801 | 34990 ft | 483 kts | 84° |
| 2026-05-08 03:44 | 43.52658 | 71.01027 | 34993 ft | 483 kts | 84° |
| 2026-05-08 03:45 | 43.53332 | 71.10193 | 34995 ft | 483 kts | 84° |
| 2026-05-08 03:45 | 43.54004 | 71.19424 | 34993 ft | 483 kts | 84° |
| 2026-05-08 03:46 | 43.54666 | 71.28609 | 34991 ft | 483 kts | 84° |
| 2026-05-08 03:46 | 43.55323 | 71.37842 | 34993 ft | 483 kts | 84° |
| 2026-05-08 03:47 | 43.55975 | 71.47093 | 34993 ft | 483 kts | 85° |
| 2026-05-08 03:47 | 43.56617 | 71.56329 | 34993 ft | 483 kts | 84° |
| 2026-05-08 03:48 | 43.57247 | 71.65491 | 34995 ft | 483 kts | 84° |
| 2026-05-08 03:48 | 43.57875 | 71.74733 | 34993 ft | 483 kts | 84° |
| 2026-05-08 03:49 | 43.58497 | 71.84006 | 34993 ft | 483 kts | 84° |
| 2026-05-08 03:49 | 43.59107 | 71.93207 | 34993 ft | 484 kts | 84° |
| 2026-05-08 03:50 | 43.59714 | 72.02482 | 34991 ft | 485 kts | 84° |
| 2026-05-08 03:50 | 43.60310 | 72.11695 | 34990 ft | 485 kts | 84° |
| 2026-05-08 03:51 | 43.60905 | 72.21003 | 34990 ft | 485 kts | 84° |
| 2026-05-08 03:51 | 43.61487 | 72.30254 | 34988 ft | 485 kts | 84° |
| 2026-05-08 03:52 | 43.62065 | 72.39539 | 34989 ft | 485 kts | 84° |
| 2026-05-08 03:52 | 43.62631 | 72.48772 | 34989 ft | 484 kts | 84° |
| 2026-05-08 03:53 | 43.63190 | 72.58002 | 34989 ft | 484 kts | 84° |
| 2026-05-08 03:53 | 43.63744 | 72.67272 | 34989 ft | 484 kts | 84° |
| 2026-05-08 03:54 | 43.64290 | 72.76536 | 34992 ft | 484 kts | 84° |
| 2026-05-08 03:54 | 43.64827 | 72.85766 | 34990 ft | 483 kts | 84° |
| 2026-05-08 03:55 | 43.65357 | 72.95021 | 34987 ft | 483 kts | 84° |
| 2026-05-08 03:55 | 43.65880 | 73.04279 | 34989 ft | 482 kts | 84° |
| 2026-05-08 03:56 | 43.66392 | 73.13475 | 34993 ft | 482 kts | 84° |
| 2026-05-08 03:56 | 43.66899 | 73.22725 | 34992 ft | 482 kts | 84° |
| 2026-05-08 03:57 | 43.67398 | 73.31954 | 34995 ft | 482 kts | 84° |
| 2026-05-08 03:57 | 43.67889 | 73.41169 | 34996 ft | 481 kts | 84° |
| 2026-05-08 03:58 | 43.68370 | 73.50363 | 34995 ft | 481 kts | 84° |
| 2026-05-08 03:58 | 43.68847 | 73.59600 | 34998 ft | 481 kts | 84° |
| 2026-05-08 03:59 | 43.69316 | 73.68815 | 35002 ft | 481 kts | 85° |
| 2026-05-08 03:59 | 43.69611 | 73.78010 | 35003 ft | 481 kts | 89° |
| 2026-05-08 04:00 | 43.69399 | 73.87292 | 35006 ft | 482 kts | 92° |
| 2026-05-08 04:00 | 43.69060 | 73.96529 | 35009 ft | 482 kts | 92° |
| 2026-05-08 04:01 | 43.68743 | 74.05771 | 35009 ft | 482 kts | 91° |
| 2026-05-08 04:01 | 43.68454 | 74.15039 | 35010 ft | 481 kts | 91° |
| 2026-05-08 04:02 | 43.68174 | 74.24251 | 35019 ft | 481 kts | 91° |
| 2026-05-08 04:02 | 43.67895 | 74.33510 | 35020 ft | 481 kts | 91° |
| 2026-05-08 04:03 | 43.67610 | 74.42707 | 35019 ft | 479 kts | 91° |
| 2026-05-08 04:03 | 43.67167 | 74.56481 | 35024 ft | 478 kts | 91° |
| 2026-05-08 04:04 | 43.66864 | 74.65614 | 35022 ft | 478 kts | 91° |
| 2026-05-08 04:04 | 43.66550 | 74.74812 | 35022 ft | 478 kts | 91° |
| 2026-05-08 04:05 | 43.66231 | 74.83955 | 35021 ft | 478 kts | 91° |
| 2026-05-08 04:05 | 43.65904 | 74.93153 | 35020 ft | 478 kts | 91° |
| 2026-05-08 04:06 | 43.65569 | 75.02330 | 35019 ft | 478 kts | 91° |
| 2026-05-08 04:06 | 43.65229 | 75.11460 | 35012 ft | 477 kts | 92° |
| 2026-05-08 04:07 | 43.64881 | 75.20610 | 35010 ft | 477 kts | 92° |
| 2026-05-08 04:07 | 43.64525 | 75.29772 | 35011 ft | 475 kts | 92° |
| 2026-05-08 04:08 | 43.64166 | 75.38818 | 35006 ft | 475 kts | 92° |
| 2026-05-08 04:08 | 43.63796 | 75.47966 | 35008 ft | 476 kts | 92° |
| 2026-05-08 04:09 | 43.62871 | 75.57022 | 35007 ft | 477 kts | 102° |
| 2026-05-08 04:09 | 43.61311 | 75.65887 | 35005 ft | 478 kts | 103° |
| 2026-05-08 04:10 | 43.59696 | 75.74806 | 35003 ft | 478 kts | 103° |
| 2026-05-08 04:10 | 43.58095 | 75.83659 | 35003 ft | 478 kts | 103° |
| 2026-05-08 04:11 | 43.56488 | 75.92517 | 35001 ft | 478 kts | 103° |
| 2026-05-08 04:11 | 43.54869 | 76.01410 | 34998 ft | 478 kts | 103° |
| 2026-05-08 04:12 | 43.53244 | 76.10291 | 35001 ft | 477 kts | 103° |
| 2026-05-08 04:12 | 43.51615 | 76.19154 | 35004 ft | 476 kts | 103° |
| 2026-05-08 04:13 | 43.49987 | 76.27972 | 35002 ft | 476 kts | 103° |
| 2026-05-08 04:13 | 43.48341 | 76.36843 | 35004 ft | 476 kts | 103° |
| 2026-05-08 04:14 | 43.46709 | 76.45602 | 35003 ft | 476 kts | 103° |
| 2026-05-08 04:14 | 43.45055 | 76.54435 | 34998 ft | 475 kts | 104° |
| 2026-05-08 04:15 | 43.43392 | 76.63272 | 35009 ft | 475 kts | 104° |
| 2026-05-08 04:15 | 43.41738 | 76.72024 | 35011 ft | 474 kts | 104° |
| 2026-05-08 04:16 | 43.40077 | 76.80771 | 35016 ft | 474 kts | 104° |
| 2026-05-08 04:16 | 43.38400 | 76.89562 | 35049 ft | 474 kts | 104° |
| 2026-05-08 04:17 | 43.36731 | 76.98274 | 35047 ft | 473 kts | 104° |
| 2026-05-08 04:17 | 43.35047 | 77.07031 | 35048 ft | 473 kts | 104° |
| 2026-05-08 04:18 | 43.33366 | 77.15758 | 35048 ft | 473 kts | 104° |
| 2026-05-08 04:18 | 43.31679 | 77.24498 | 35063 ft | 473 kts | 104° |
| 2026-05-08 04:19 | 43.30003 | 77.33170 | 35070 ft | 473 kts | 104° |
| 2026-05-08 04:19 | 43.28313 | 77.41912 | 35107 ft | 473 kts | 104° |
| 2026-05-08 04:20 | 43.26619 | 77.50663 | 35128 ft | 473 kts | 104° |
| 2026-05-08 04:20 | 43.24928 | 77.59387 | 35135 ft | 473 kts | 104° |
| 2026-05-08 04:21 | 43.23247 | 77.68049 | 35141 ft | 472 kts | 104° |
| 2026-05-08 04:21 | 43.21547 | 77.76795 | 35143 ft | 472 kts | 104° |
| 2026-05-08 04:22 | 43.19859 | 77.85469 | 35124 ft | 472 kts | 104° |
| 2026-05-08 04:22 | 43.18446 | 77.92719 | 35150 ft | 472 kts | 104° |
| 2026-05-08 04:23 | 43.16748 | 78.01409 | 35136 ft | 472 kts | 103° |
| 2026-05-08 04:23 | 43.15044 | 78.10106 | 35137 ft | 471 kts | 103° |
| 2026-05-08 04:24 | 43.13359 | 78.18701 | 35134 ft | 471 kts | 103° |
| 2026-05-08 04:24 | 43.11654 | 78.27386 | 35115 ft | 471 kts | 103° |
| 2026-05-08 04:25 | 43.09964 | 78.35989 | 35116 ft | 471 kts | 103° |
| 2026-05-08 04:25 | 43.08258 | 78.44666 | 35108 ft | 471 kts | 103° |
| 2026-05-08 04:26 | 43.06558 | 78.53304 | 35107 ft | 471 kts | 103° |
| 2026-05-08 04:26 | 43.04862 | 78.61917 | 35108 ft | 471 kts | 103° |
| 2026-05-08 04:27 | 43.03150 | 78.70599 | 35107 ft | 471 kts | 103° |
| 2026-05-08 04:27 | 43.01444 | 78.79233 | 35107 ft | 469 kts | 103° |
| 2026-05-08 04:28 | 42.99754 | 78.87776 | 35100 ft | 469 kts | 103° |
| 2026-05-08 04:28 | 42.98047 | 78.96387 | 35099 ft | 468 kts | 103° |
| 2026-05-08 04:29 | 42.96342 | 79.04979 | 35110 ft | 468 kts | 103° |
| 2026-05-08 04:29 | 42.94642 | 79.13540 | 35117 ft | 468 kts | 103° |
| 2026-05-08 04:30 | 42.92940 | 79.22093 | 35116 ft | 468 kts | 103° |
| 2026-05-08 04:30 | 42.91231 | 79.30672 | 35143 ft | 469 kts | 103° |
| 2026-05-08 04:31 | 42.89511 | 79.39293 | 35140 ft | 469 kts | 103° |
| 2026-05-08 04:31 | 42.87793 | 79.47890 | 35146 ft | 470 kts | 103° |
| 2026-05-08 04:32 | 42.86074 | 79.56478 | 35163 ft | 470 kts | 103° |
| 2026-05-08 04:32 | 42.84347 | 79.65096 | 35162 ft | 470 kts | 103° |
| 2026-05-08 04:33 | 42.82634 | 79.73636 | 35160 ft | 470 kts | 103° |
| 2026-05-08 04:33 | 42.80905 | 79.82249 | 35176 ft | 469 kts | 103° |
| 2026-05-08 04:34 | 42.79195 | 79.90761 | 35165 ft | 469 kts | 103° |
| 2026-05-08 04:34 | 42.77465 | 79.99364 | 35166 ft | 469 kts | 103° |
| 2026-05-08 04:35 | 42.75747 | 80.07890 | 35154 ft | 469 kts | 103° |
| 2026-05-08 04:35 | 42.74021 | 80.16447 | 35183 ft | 469 kts | 103° |
| 2026-05-08 04:36 | 42.72304 | 80.24944 | 35177 ft | 468 kts | 104° |
| 2026-05-08 04:36 | 42.70574 | 80.33500 | 35178 ft | 468 kts | 104° |
| 2026-05-08 04:37 | 42.68847 | 80.42034 | 35177 ft | 468 kts | 104° |
| 2026-05-08 04:37 | 42.67129 | 80.50521 | 35176 ft | 468 kts | 104° |
| 2026-05-08 04:38 | 42.65399 | 80.59060 | 35175 ft | 469 kts | 104° |
| 2026-05-08 04:38 | 42.63671 | 80.67591 | 35203 ft | 469 kts | 105° |
| 2026-05-08 04:39 | 42.61933 | 80.76168 | 35203 ft | 469 kts | 105° |
| 2026-05-08 04:39 | 42.60207 | 80.84684 | 35204 ft | 470 kts | 105° |
| 2026-05-08 04:40 | 42.58475 | 80.93222 | 35209 ft | 469 kts | 105° |
| 2026-05-08 04:40 | 42.56737 | 81.01787 | 35229 ft | 469 kts | 105° |
| 2026-05-08 04:41 | 42.55016 | 81.10269 | 35237 ft | 469 kts | 105° |
| 2026-05-08 04:41 | 42.53279 | 81.18823 | 35240 ft | 469 kts | 105° |
| 2026-05-08 04:42 | 42.51554 | 81.27320 | 35254 ft | 469 kts | 105° |
| 2026-05-08 04:42 | 42.49818 | 81.35871 | 35255 ft | 470 kts | 105° |
| 2026-05-08 04:43 | 42.48087 | 81.44391 | 35259 ft | 469 kts | 105° |
| 2026-05-08 04:43 | 42.46361 | 81.52892 | 35249 ft | 469 kts | 105° |
| 2026-05-08 04:44 | 42.44672 | 81.61209 | 35246 ft | 469 kts | 105° |
| 2026-05-08 04:44 | 42.42938 | 81.69734 | 35244 ft | 469 kts | 104° |
| 2026-05-08 04:45 | 42.41217 | 81.78193 | 35244 ft | 469 kts | 104° |
| 2026-05-08 04:45 | 42.39479 | 81.86723 | 35223 ft | 469 kts | 104° |
| 2026-05-08 04:46 | 42.37756 | 81.95174 | 35222 ft | 469 kts | 105° |
| 2026-05-08 04:46 | 42.36021 | 82.03682 | 35208 ft | 469 kts | 105° |
| 2026-05-08 04:47 | 42.34286 | 82.12189 | 35174 ft | 469 kts | 104° |
| 2026-05-08 04:47 | 42.32561 | 82.20629 | 35175 ft | 467 kts | 104° |
| 2026-05-08 04:48 | 42.30828 | 82.29108 | 35175 ft | 467 kts | 104° |
| 2026-05-08 04:48 | 42.29108 | 82.37521 | 35178 ft | 467 kts | 104° |
| 2026-05-08 04:49 | 42.27378 | 82.45970 | 35129 ft | 467 kts | 104° |
| 2026-05-08 04:49 | 42.25641 | 82.54457 | 35129 ft | 467 kts | 104° |
| 2026-05-08 04:50 | 42.23967 | 82.62626 | 35117 ft | 467 kts | 104° |